<?xml version="1.0" encoding="UTF-8"?>
<gpx version="1.1" creator="2bulu-scraper" xmlns="http://www.topografix.com/GPX/1/1">
  <metadata><name>宜宾七星山寨子岩</name><desc>source: 2bulu.com trackId=76892054; exported 2026-08-31T01:51:35.090Z</desc>
    <bounds minlat="28.6723825" minlon="104.612395" maxlat="28.6958698" maxlon="104.6283529"/>
    <link href="https://www.2bulu.com/track/t-u9UDjUJtmvrp%252FR2KBg5Tzw%253D%253D.htm"><text>2bulu 源页面</text></link>
  </metadata>
  <wpt lat="28.695219" lon="104.6175842"><ele>422</ele><name>
        </name></wpt>
  <wpt lat="28.6848922" lon="104.6129803"><ele>354</ele><name>
        </name></wpt>
  <wpt lat="28.6805767" lon="104.6131416"><ele>348</ele><name>
        </name></wpt>
  <wpt lat="28.6797011" lon="104.6130205"><ele>348</ele><name>
        </name></wpt>
  <wpt lat="28.6786404" lon="104.61347"><ele>355</ele><name>
        </name></wpt>
  <wpt lat="28.6771076" lon="104.6134387"><ele>376</ele><name>
        </name></wpt>
  <wpt lat="28.676894" lon="104.6127977"><ele>366</ele><name>
        </name></wpt>
  <wpt lat="28.6748994" lon="104.6142268"><ele>432</ele><name>
        </name></wpt>
  <wpt lat="28.6737603" lon="104.6148105"><ele>473</ele><name>
        </name></wpt>
  <wpt lat="28.6732086" lon="104.6154812"><ele>494</ele><name>
        </name></wpt>
  <wpt lat="28.677826" lon="104.61877"><ele>595</ele><name>
        </name></wpt>
  <wpt lat="28.6778296" lon="104.6236132"><ele>551</ele><name>
        </name></wpt>
  <wpt lat="28.6791996" lon="104.6244309"><ele>525</ele><name>
        </name></wpt>
  <wpt lat="28.6803245" lon="104.6262928"><ele>541</ele><name>
        </name></wpt>
  <wpt lat="28.6835475" lon="104.6263721"><ele>405</ele><name>
        </name></wpt>
  <wpt lat="28.6923747" lon="104.6243052"><ele>371</ele><name>
        </name></wpt>
  <trk><name>宜宾七星山寨子岩</name>
      <trkseg>
        <trkpt lat="28.6949173" lon="104.6175656"><ele>361.7</ele><time>2025-12-26T18:16:50.000Z</time></trkpt>
        <trkpt lat="28.6948559" lon="104.6176149"><ele>361.7</ele><time>2025-12-26T18:16:56.000Z</time></trkpt>
        <trkpt lat="28.6948244" lon="104.6176374"><ele>363.39</ele><time>2025-12-26T18:16:58.000Z</time></trkpt>
        <trkpt lat="28.694813" lon="104.6176492"><ele>363.67</ele><time>2025-12-26T18:17:00.000Z</time></trkpt>
        <trkpt lat="28.694761" lon="104.6177251"><ele>363.83</ele><time>2025-12-26T18:17:08.000Z</time></trkpt>
        <trkpt lat="28.6946727" lon="104.6178065"><ele>363.87</ele><time>2025-12-26T18:17:16.000Z</time></trkpt>
        <trkpt lat="28.6945827" lon="104.6178625"><ele>365.05</ele><time>2025-12-26T18:17:22.000Z</time></trkpt>
        <trkpt lat="28.6944797" lon="104.6179131"><ele>366.67</ele><time>2025-12-26T18:17:30.000Z</time></trkpt>
        <trkpt lat="28.6943694" lon="104.6179622"><ele>369.16</ele><time>2025-12-26T18:17:38.000Z</time></trkpt>
        <trkpt lat="28.694252" lon="104.6179748"><ele>371.37</ele><time>2025-12-26T18:17:46.000Z</time></trkpt>
        <trkpt lat="28.6941528" lon="104.6179484"><ele>373.27</ele><time>2025-12-26T18:17:56.000Z</time></trkpt>
        <trkpt lat="28.6940635" lon="104.6179683"><ele>374.06</ele><time>2025-12-26T18:18:04.000Z</time></trkpt>
        <trkpt lat="28.6939873" lon="104.6180302"><ele>373.73</ele><time>2025-12-26T18:18:14.000Z</time></trkpt>
        <trkpt lat="28.6939111" lon="104.6181157"><ele>371</ele><time>2025-12-26T18:18:24.000Z</time></trkpt>
        <trkpt lat="28.6938395" lon="104.6181894"><ele>369.69</ele><time>2025-12-26T18:18:32.000Z</time></trkpt>
        <trkpt lat="28.6937579" lon="104.6182426"><ele>369.56</ele><time>2025-12-26T18:18:40.000Z</time></trkpt>
        <trkpt lat="28.6936793" lon="104.6182968"><ele>369.1</ele><time>2025-12-26T18:18:48.000Z</time></trkpt>
        <trkpt lat="28.6935831" lon="104.6183508"><ele>369.18</ele><time>2025-12-26T18:18:58.000Z</time></trkpt>
        <trkpt lat="28.6934917" lon="104.6183924"><ele>369.89</ele><time>2025-12-26T18:19:06.000Z</time></trkpt>
        <trkpt lat="28.6933941" lon="104.6183864"><ele>369.96</ele><time>2025-12-26T18:19:16.000Z</time></trkpt>
        <trkpt lat="28.6932905" lon="104.6183543"><ele>370.07</ele><time>2025-12-26T18:19:26.000Z</time></trkpt>
        <trkpt lat="28.6931884" lon="104.618355"><ele>369.64</ele><time>2025-12-26T18:19:38.000Z</time></trkpt>
        <trkpt lat="28.6930914" lon="104.6183976"><ele>365.51</ele><time>2025-12-26T18:19:50.000Z</time></trkpt>
        <trkpt lat="28.6929935" lon="104.6184491"><ele>362.03</ele><time>2025-12-26T18:20:00.000Z</time></trkpt>
        <trkpt lat="28.6928946" lon="104.6184837"><ele>360.7</ele><time>2025-12-26T18:20:10.000Z</time></trkpt>
        <trkpt lat="28.6927909" lon="104.6185009"><ele>360.15</ele><time>2025-12-26T18:20:20.000Z</time></trkpt>
        <trkpt lat="28.6926868" lon="104.618495"><ele>359.6</ele><time>2025-12-26T18:20:30.000Z</time></trkpt>
        <trkpt lat="28.692583" lon="104.6185009"><ele>359.32</ele><time>2025-12-26T18:20:40.000Z</time></trkpt>
        <trkpt lat="28.6924805" lon="104.6185356"><ele>358.99</ele><time>2025-12-26T18:20:50.000Z</time></trkpt>
        <trkpt lat="28.6923842" lon="104.6185808"><ele>359.52</ele><time>2025-12-26T18:21:00.000Z</time></trkpt>
        <trkpt lat="28.6922889" lon="104.618613"><ele>359.88</ele><time>2025-12-26T18:21:10.000Z</time></trkpt>
        <trkpt lat="28.6921917" lon="104.6186214"><ele>359.04</ele><time>2025-12-26T18:21:20.000Z</time></trkpt>
        <trkpt lat="28.6920845" lon="104.6186201"><ele>358.62</ele><time>2025-12-26T18:21:30.000Z</time></trkpt>
        <trkpt lat="28.6919777" lon="104.6186178"><ele>359.53</ele><time>2025-12-26T18:21:40.000Z</time></trkpt>
        <trkpt lat="28.6918854" lon="104.6186581"><ele>360.19</ele><time>2025-12-26T18:21:50.000Z</time></trkpt>
        <trkpt lat="28.691805" lon="104.6187317"><ele>359.45</ele><time>2025-12-26T18:22:00.000Z</time></trkpt>
        <trkpt lat="28.6917547" lon="104.6187725"><ele>357.95</ele><time>2025-12-26T18:22:06.000Z</time></trkpt>
        <trkpt lat="28.6917547" lon="104.6187725"><ele>357.95</ele><time>2025-12-26T18:22:17.000Z</time></trkpt>
        <trkpt lat="28.6918144" lon="104.6187492"><ele>357.18</ele><time>2025-12-26T18:22:31.000Z</time></trkpt>
        <trkpt lat="28.6918144" lon="104.6187492"><ele>357.18</ele><time>2025-12-26T18:22:40.000Z</time></trkpt>
        <trkpt lat="28.6919143" lon="104.6187006"><ele>358.21</ele><time>2025-12-26T18:22:50.000Z</time></trkpt>
        <trkpt lat="28.6920352" lon="104.6186812"><ele>360.07</ele><time>2025-12-26T18:23:00.000Z</time></trkpt>
        <trkpt lat="28.6920908" lon="104.6186398"><ele>362.11</ele><time>2025-12-26T18:23:06.000Z</time></trkpt>
        <trkpt lat="28.6921689" lon="104.6186055"><ele>364.91</ele><time>2025-12-26T18:23:30.000Z</time></trkpt>
        <trkpt lat="28.692259" lon="104.6186093"><ele>364.44</ele><time>2025-12-26T18:23:40.000Z</time></trkpt>
        <trkpt lat="28.6923536" lon="104.6185925"><ele>363.2</ele><time>2025-12-26T18:23:50.000Z</time></trkpt>
        <trkpt lat="28.6924502" lon="104.618555"><ele>361.27</ele><time>2025-12-26T18:24:00.000Z</time></trkpt>
        <trkpt lat="28.6925441" lon="104.6185113"><ele>360.52</ele><time>2025-12-26T18:24:12.000Z</time></trkpt>
        <trkpt lat="28.6926367" lon="104.6185001"><ele>361.12</ele><time>2025-12-26T18:24:24.000Z</time></trkpt>
        <trkpt lat="28.6926959" lon="104.6184735"><ele>362.06</ele><time>2025-12-26T18:24:33.000Z</time></trkpt>
        <trkpt lat="28.6927792" lon="104.618454"><ele>360.89</ele><time>2025-12-26T18:24:40.000Z</time></trkpt>
        <trkpt lat="28.6928691" lon="104.618458"><ele>361.04</ele><time>2025-12-26T18:24:50.000Z</time></trkpt>
        <trkpt lat="28.6929692" lon="104.6184499"><ele>362.55</ele><time>2025-12-26T18:25:02.000Z</time></trkpt>
        <trkpt lat="28.6930719" lon="104.6184353"><ele>363.9</ele><time>2025-12-26T18:25:14.000Z</time></trkpt>
        <trkpt lat="28.6931614" lon="104.6183787"><ele>364.27</ele><time>2025-12-26T18:25:24.000Z</time></trkpt>
        <trkpt lat="28.6930962" lon="104.6183564"><ele>363.11</ele><time>2025-12-26T18:25:44.000Z</time></trkpt>
        <trkpt lat="28.6929701" lon="104.6183682"><ele>364.18</ele><time>2025-12-26T18:25:50.000Z</time></trkpt>
        <trkpt lat="28.6928552" lon="104.6183928"><ele>367.38</ele><time>2025-12-26T18:25:56.000Z</time></trkpt>
        <trkpt lat="28.6927494" lon="104.6184144"><ele>370.91</ele><time>2025-12-26T18:26:04.000Z</time></trkpt>
        <trkpt lat="28.6926606" lon="104.6183756"><ele>374.37</ele><time>2025-12-26T18:26:22.000Z</time></trkpt>
        <trkpt lat="28.6925716" lon="104.6183276"><ele>373.9</ele><time>2025-12-26T18:26:34.000Z</time></trkpt>
        <trkpt lat="28.6924953" lon="104.618256"><ele>372.68</ele><time>2025-12-26T18:26:48.000Z</time></trkpt>
        <trkpt lat="28.6924177" lon="104.6181813"><ele>369.1</ele><time>2025-12-26T18:27:00.000Z</time></trkpt>
        <trkpt lat="28.6923209" lon="104.6181446"><ele>367.57</ele><time>2025-12-26T18:27:12.000Z</time></trkpt>
        <trkpt lat="28.6922217" lon="104.618113"><ele>363.06</ele><time>2025-12-26T18:27:24.000Z</time></trkpt>
        <trkpt lat="28.6921259" lon="104.6180685"><ele>359.46</ele><time>2025-12-26T18:27:36.000Z</time></trkpt>
        <trkpt lat="28.6920376" lon="104.6180063"><ele>357.06</ele><time>2025-12-26T18:27:48.000Z</time></trkpt>
        <trkpt lat="28.6919524" lon="104.617943"><ele>354.67</ele><time>2025-12-26T18:27:58.000Z</time></trkpt>
        <trkpt lat="28.6918799" lon="104.6178756"><ele>352.6</ele><time>2025-12-26T18:28:06.000Z</time></trkpt>
        <trkpt lat="28.6918129" lon="104.6177892"><ele>352.03</ele><time>2025-12-26T18:28:14.000Z</time></trkpt>
        <trkpt lat="28.6917673" lon="104.6176874"><ele>352.96</ele><time>2025-12-26T18:28:20.000Z</time></trkpt>
        <trkpt lat="28.6917438" lon="104.6175799"><ele>355.49</ele><time>2025-12-26T18:28:28.000Z</time></trkpt>
        <trkpt lat="28.6917402" lon="104.6174709"><ele>356.03</ele><time>2025-12-26T18:28:36.000Z</time></trkpt>
        <trkpt lat="28.6917711" lon="104.6173583"><ele>355.37</ele><time>2025-12-26T18:28:46.000Z</time></trkpt>
        <trkpt lat="28.6918088" lon="104.617246"><ele>354.01</ele><time>2025-12-26T18:28:54.000Z</time></trkpt>
        <trkpt lat="28.6918036" lon="104.6171321"><ele>347.46</ele><time>2025-12-26T18:28:58.000Z</time></trkpt>
        <trkpt lat="28.6917756" lon="104.6170313"><ele>343.54</ele><time>2025-12-26T18:29:04.000Z</time></trkpt>
        <trkpt lat="28.6917097" lon="104.6169418"><ele>344.37</ele><time>2025-12-26T18:29:14.000Z</time></trkpt>
        <trkpt lat="28.6916416" lon="104.6168396"><ele>345.54</ele><time>2025-12-26T18:29:20.000Z</time></trkpt>
        <trkpt lat="28.6915613" lon="104.6167319"><ele>348.96</ele><time>2025-12-26T18:29:26.000Z</time></trkpt>
        <trkpt lat="28.6914888" lon="104.6166467"><ele>353.66</ele><time>2025-12-26T18:29:32.000Z</time></trkpt>
        <trkpt lat="28.6914096" lon="104.6165668"><ele>357.82</ele><time>2025-12-26T18:29:40.000Z</time></trkpt>
        <trkpt lat="28.6913241" lon="104.6165125"><ele>361.36</ele><time>2025-12-26T18:29:48.000Z</time></trkpt>
        <trkpt lat="28.6912306" lon="104.6164671"><ele>364.39</ele><time>2025-12-26T18:29:58.000Z</time></trkpt>
        <trkpt lat="28.6911309" lon="104.6164325"><ele>367</ele><time>2025-12-26T18:30:08.000Z</time></trkpt>
        <trkpt lat="28.6910452" lon="104.6163822"><ele>368.2</ele><time>2025-12-26T18:30:20.000Z</time></trkpt>
        <trkpt lat="28.6909468" lon="104.6163508"><ele>368.8</ele><time>2025-12-26T18:30:30.000Z</time></trkpt>
        <trkpt lat="28.6908492" lon="104.6163061"><ele>369.09</ele><time>2025-12-26T18:30:40.000Z</time></trkpt>
        <trkpt lat="28.6907497" lon="104.616272"><ele>368.91</ele><time>2025-12-26T18:30:50.000Z</time></trkpt>
        <trkpt lat="28.6906511" lon="104.6162149"><ele>368.13</ele><time>2025-12-26T18:31:00.000Z</time></trkpt>
        <trkpt lat="28.6905509" lon="104.6161373"><ele>368.87</ele><time>2025-12-26T18:31:08.000Z</time></trkpt>
        <trkpt lat="28.6904673" lon="104.6160577"><ele>370.76</ele><time>2025-12-26T18:31:14.000Z</time></trkpt>
        <trkpt lat="28.6903849" lon="104.6159977"><ele>373.03</ele><time>2025-12-26T18:31:26.000Z</time></trkpt>
        <trkpt lat="28.6902946" lon="104.615992"><ele>374.15</ele><time>2025-12-26T18:31:38.000Z</time></trkpt>
        <trkpt lat="28.6901873" lon="104.6160086"><ele>373.48</ele><time>2025-12-26T18:31:50.000Z</time></trkpt>
        <trkpt lat="28.6900911" lon="104.6160242"><ele>372.16</ele><time>2025-12-26T18:31:58.000Z</time></trkpt>
        <trkpt lat="28.6899814" lon="104.6160365"><ele>370.42</ele><time>2025-12-26T18:32:08.000Z</time></trkpt>
        <trkpt lat="28.689875" lon="104.6160473"><ele>369.13</ele><time>2025-12-26T18:32:18.000Z</time></trkpt>
        <trkpt lat="28.6897714" lon="104.6160715"><ele>368.23</ele><time>2025-12-26T18:32:28.000Z</time></trkpt>
        <trkpt lat="28.6896912" lon="104.6161441"><ele>366.86</ele><time>2025-12-26T18:32:38.000Z</time></trkpt>
        <trkpt lat="28.689631" lon="104.6162291"><ele>365.81</ele><time>2025-12-26T18:32:46.000Z</time></trkpt>
        <trkpt lat="28.6895872" lon="104.6163313"><ele>364.73</ele><time>2025-12-26T18:32:54.000Z</time></trkpt>
        <trkpt lat="28.689517" lon="104.6164264"><ele>363.35</ele><time>2025-12-26T18:33:04.000Z</time></trkpt>
        <trkpt lat="28.6894183" lon="104.6164866"><ele>362.08</ele><time>2025-12-26T18:33:14.000Z</time></trkpt>
        <trkpt lat="28.6893121" lon="104.6164953"><ele>360.49</ele><time>2025-12-26T18:33:22.000Z</time></trkpt>
        <trkpt lat="28.6892183" lon="104.6164596"><ele>359.33</ele><time>2025-12-26T18:33:30.000Z</time></trkpt>
        <trkpt lat="28.6891323" lon="104.6163948"><ele>358.82</ele><time>2025-12-26T18:33:38.000Z</time></trkpt>
        <trkpt lat="28.689056" lon="104.6163153"><ele>358.32</ele><time>2025-12-26T18:33:46.000Z</time></trkpt>
        <trkpt lat="28.6889797" lon="104.6162392"><ele>358.69</ele><time>2025-12-26T18:33:54.000Z</time></trkpt>
        <trkpt lat="28.6888869" lon="104.6162067"><ele>359.7</ele><time>2025-12-26T18:34:02.000Z</time></trkpt>
        <trkpt lat="28.6887879" lon="104.6162101"><ele>360.19</ele><time>2025-12-26T18:34:10.000Z</time></trkpt>
        <trkpt lat="28.6886926" lon="104.6162379"><ele>360.38</ele><time>2025-12-26T18:34:18.000Z</time></trkpt>
        <trkpt lat="28.6886012" lon="104.6162703"><ele>360.42</ele><time>2025-12-26T18:34:26.000Z</time></trkpt>
        <trkpt lat="28.688511" lon="104.6162874"><ele>360.6</ele><time>2025-12-26T18:34:34.000Z</time></trkpt>
        <trkpt lat="28.6884412" lon="104.6162945"><ele>361.22</ele><time>2025-12-26T18:34:42.000Z</time></trkpt>
        <trkpt lat="28.6884412" lon="104.6162945"><ele>361.22</ele><time>2025-12-26T18:34:51.000Z</time></trkpt>
        <trkpt lat="28.688358" lon="104.6162892"><ele>362.8</ele><time>2025-12-26T18:35:23.000Z</time></trkpt>
        <trkpt lat="28.688358" lon="104.6162892"><ele>362.8</ele><time>2025-12-26T18:35:32.000Z</time></trkpt>
        <trkpt lat="28.6882691" lon="104.6162768"><ele>365.36</ele><time>2025-12-26T18:35:44.000Z</time></trkpt>
        <trkpt lat="28.6881772" lon="104.6162454"><ele>366.82</ele><time>2025-12-26T18:35:56.000Z</time></trkpt>
        <trkpt lat="28.68809" lon="104.616206"><ele>366.54</ele><time>2025-12-26T18:36:04.000Z</time></trkpt>
        <trkpt lat="28.6879912" lon="104.6161692"><ele>366.4</ele><time>2025-12-26T18:36:14.000Z</time></trkpt>
        <trkpt lat="28.6878938" lon="104.6161187"><ele>366.1</ele><time>2025-12-26T18:36:24.000Z</time></trkpt>
        <trkpt lat="28.6877946" lon="104.6160622"><ele>365.92</ele><time>2025-12-26T18:36:34.000Z</time></trkpt>
        <trkpt lat="28.6876962" lon="104.6160123"><ele>365.14</ele><time>2025-12-26T18:36:44.000Z</time></trkpt>
        <trkpt lat="28.6876101" lon="104.6159428"><ele>364.57</ele><time>2025-12-26T18:36:54.000Z</time></trkpt>
        <trkpt lat="28.6875151" lon="104.6158788"><ele>363.77</ele><time>2025-12-26T18:37:04.000Z</time></trkpt>
        <trkpt lat="28.687431" lon="104.615814"><ele>362</ele><time>2025-12-26T18:37:12.000Z</time></trkpt>
        <trkpt lat="28.6873394" lon="104.6157499"><ele>360.65</ele><time>2025-12-26T18:37:22.000Z</time></trkpt>
        <trkpt lat="28.6872503" lon="104.6157073"><ele>359.63</ele><time>2025-12-26T18:37:30.000Z</time></trkpt>
        <trkpt lat="28.6871544" lon="104.6156752"><ele>358.27</ele><time>2025-12-26T18:37:38.000Z</time></trkpt>
        <trkpt lat="28.6870527" lon="104.6156515"><ele>356.78</ele><time>2025-12-26T18:37:46.000Z</time></trkpt>
        <trkpt lat="28.6869591" lon="104.6156272"><ele>355.54</ele><time>2025-12-26T18:37:54.000Z</time></trkpt>
        <trkpt lat="28.686866" lon="104.6156133"><ele>354.86</ele><time>2025-12-26T18:38:02.000Z</time></trkpt>
        <trkpt lat="28.6867721" lon="104.6155998"><ele>354.04</ele><time>2025-12-26T18:38:08.000Z</time></trkpt>
        <trkpt lat="28.686662" lon="104.6155807"><ele>354.01</ele><time>2025-12-26T18:38:16.000Z</time></trkpt>
        <trkpt lat="28.6865567" lon="104.615531"><ele>354.43</ele><time>2025-12-26T18:38:24.000Z</time></trkpt>
        <trkpt lat="28.6864662" lon="104.6154646"><ele>356.39</ele><time>2025-12-26T18:38:32.000Z</time></trkpt>
        <trkpt lat="28.6863936" lon="104.6153632"><ele>357.94</ele><time>2025-12-26T18:38:42.000Z</time></trkpt>
        <trkpt lat="28.6863543" lon="104.6152546"><ele>358.55</ele><time>2025-12-26T18:38:50.000Z</time></trkpt>
        <trkpt lat="28.6863317" lon="104.6151389"><ele>358.37</ele><time>2025-12-26T18:39:00.000Z</time></trkpt>
        <trkpt lat="28.6863314" lon="104.6150192"><ele>357.33</ele><time>2025-12-26T18:39:10.000Z</time></trkpt>
        <trkpt lat="28.6863344" lon="104.6149005"><ele>357.4</ele><time>2025-12-26T18:39:20.000Z</time></trkpt>
        <trkpt lat="28.6863434" lon="104.6147787"><ele>357.53</ele><time>2025-12-26T18:39:30.000Z</time></trkpt>
        <trkpt lat="28.6863379" lon="104.6146536"><ele>357.14</ele><time>2025-12-26T18:39:40.000Z</time></trkpt>
        <trkpt lat="28.6863273" lon="104.6145388"><ele>356.14</ele><time>2025-12-26T18:39:48.000Z</time></trkpt>
        <trkpt lat="28.6863152" lon="104.6144303"><ele>355.83</ele><time>2025-12-26T18:39:56.000Z</time></trkpt>
        <trkpt lat="28.6862851" lon="104.6143159"><ele>355.04</ele><time>2025-12-26T18:40:06.000Z</time></trkpt>
        <trkpt lat="28.6862257" lon="104.6142303"><ele>353.72</ele><time>2025-12-26T18:40:14.000Z</time></trkpt>
        <trkpt lat="28.6861557" lon="104.6141605"><ele>352.62</ele><time>2025-12-26T18:40:22.000Z</time></trkpt>
        <trkpt lat="28.6860819" lon="104.6140878"><ele>352.22</ele><time>2025-12-26T18:40:30.000Z</time></trkpt>
        <trkpt lat="28.6860289" lon="104.6139979"><ele>352.35</ele><time>2025-12-26T18:40:38.000Z</time></trkpt>
        <trkpt lat="28.6859813" lon="104.6138985"><ele>352.88</ele><time>2025-12-26T18:40:46.000Z</time></trkpt>
        <trkpt lat="28.6859115" lon="104.6138329"><ele>353.25</ele><time>2025-12-26T18:40:54.000Z</time></trkpt>
        <trkpt lat="28.6858202" lon="104.6137752"><ele>353.53</ele><time>2025-12-26T18:41:04.000Z</time></trkpt>
        <trkpt lat="28.6857531" lon="104.6137013"><ele>353.25</ele><time>2025-12-26T18:41:12.000Z</time></trkpt>
        <trkpt lat="28.6856857" lon="104.6136319"><ele>353.36</ele><time>2025-12-26T18:41:20.000Z</time></trkpt>
        <trkpt lat="28.6856098" lon="104.6135613"><ele>353.65</ele><time>2025-12-26T18:41:30.000Z</time></trkpt>
        <trkpt lat="28.685531" lon="104.6134767"><ele>354.1</ele><time>2025-12-26T18:41:40.000Z</time></trkpt>
        <trkpt lat="28.6854488" lon="104.6134119"><ele>354</ele><time>2025-12-26T18:41:48.000Z</time></trkpt>
        <trkpt lat="28.685364" lon="104.6133632"><ele>353.96</ele><time>2025-12-26T18:41:56.000Z</time></trkpt>
        <trkpt lat="28.6852628" lon="104.6133229"><ele>354.16</ele><time>2025-12-26T18:42:06.000Z</time></trkpt>
        <trkpt lat="28.6851677" lon="104.6132877"><ele>354.36</ele><time>2025-12-26T18:42:14.000Z</time></trkpt>
        <trkpt lat="28.6850829" lon="104.6132409"><ele>354.14</ele><time>2025-12-26T18:42:22.000Z</time></trkpt>
        <trkpt lat="28.6850303" lon="104.6131414"><ele>353.82</ele><time>2025-12-26T18:42:32.000Z</time></trkpt>
        <trkpt lat="28.6849661" lon="104.6130637"><ele>355.57</ele><time>2025-12-26T18:42:40.000Z</time></trkpt>
        <trkpt lat="28.6848922" lon="104.6129803"><ele>355.82</ele><time>2025-12-26T18:42:50.000Z</time></trkpt>
        <trkpt lat="28.6848103" lon="104.6129172"><ele>355.68</ele><time>2025-12-26T18:43:02.000Z</time></trkpt>
        <trkpt lat="28.6847141" lon="104.6129067"><ele>354.49</ele><time>2025-12-26T18:43:10.000Z</time></trkpt>
        <trkpt lat="28.6846148" lon="104.6129124"><ele>353.03</ele><time>2025-12-26T18:43:18.000Z</time></trkpt>
        <trkpt lat="28.6845229" lon="104.6128974"><ele>350.88</ele><time>2025-12-26T18:43:26.000Z</time></trkpt>
        <trkpt lat="28.6844383" lon="104.6128588"><ele>349.55</ele><time>2025-12-26T18:43:34.000Z</time></trkpt>
        <trkpt lat="28.684356" lon="104.6128132"><ele>349.02</ele><time>2025-12-26T18:43:42.000Z</time></trkpt>
        <trkpt lat="28.6842652" lon="104.6127542"><ele>348.72</ele><time>2025-12-26T18:43:52.000Z</time></trkpt>
        <trkpt lat="28.6841725" lon="104.6126965"><ele>347.8</ele><time>2025-12-26T18:44:02.000Z</time></trkpt>
        <trkpt lat="28.6840756" lon="104.6126386"><ele>346.44</ele><time>2025-12-26T18:44:12.000Z</time></trkpt>
        <trkpt lat="28.6839894" lon="104.6125871"><ele>344.82</ele><time>2025-12-26T18:44:20.000Z</time></trkpt>
        <trkpt lat="28.6839078" lon="104.6125355"><ele>344.21</ele><time>2025-12-26T18:44:28.000Z</time></trkpt>
        <trkpt lat="28.683813" lon="104.6124826"><ele>343.67</ele><time>2025-12-26T18:44:38.000Z</time></trkpt>
        <trkpt lat="28.6837159" lon="104.6124283"><ele>343.56</ele><time>2025-12-26T18:44:48.000Z</time></trkpt>
        <trkpt lat="28.6836114" lon="104.6124026"><ele>344.34</ele><time>2025-12-26T18:44:58.000Z</time></trkpt>
        <trkpt lat="28.6835058" lon="104.612395"><ele>345.12</ele><time>2025-12-26T18:45:08.000Z</time></trkpt>
        <trkpt lat="28.6833979" lon="104.6124064"><ele>346.11</ele><time>2025-12-26T18:45:18.000Z</time></trkpt>
        <trkpt lat="28.6833082" lon="104.6124482"><ele>346.82</ele><time>2025-12-26T18:45:28.000Z</time></trkpt>
        <trkpt lat="28.6832169" lon="104.6124939"><ele>347.19</ele><time>2025-12-26T18:45:42.000Z</time></trkpt>
        <trkpt lat="28.6831201" lon="104.6125396"><ele>346.91</ele><time>2025-12-26T18:45:52.000Z</time></trkpt>
        <trkpt lat="28.6830172" lon="104.6125803"><ele>346.56</ele><time>2025-12-26T18:46:02.000Z</time></trkpt>
        <trkpt lat="28.6829257" lon="104.6126383"><ele>346.22</ele><time>2025-12-26T18:46:14.000Z</time></trkpt>
        <trkpt lat="28.6828399" lon="104.6126844"><ele>347.04</ele><time>2025-12-26T18:46:24.000Z</time></trkpt>
        <trkpt lat="28.6827436" lon="104.6127346"><ele>347.79</ele><time>2025-12-26T18:46:36.000Z</time></trkpt>
        <trkpt lat="28.6826513" lon="104.6127967"><ele>347.61</ele><time>2025-12-26T18:46:46.000Z</time></trkpt>
        <trkpt lat="28.6825766" lon="104.6128795"><ele>347.06</ele><time>2025-12-26T18:46:56.000Z</time></trkpt>
        <trkpt lat="28.6824948" lon="104.6129557"><ele>346.41</ele><time>2025-12-26T18:47:06.000Z</time></trkpt>
        <trkpt lat="28.6824128" lon="104.6130263"><ele>346.24</ele><time>2025-12-26T18:47:16.000Z</time></trkpt>
        <trkpt lat="28.6823242" lon="104.6131128"><ele>346.13</ele><time>2025-12-26T18:47:26.000Z</time></trkpt>
        <trkpt lat="28.6822383" lon="104.613191"><ele>346</ele><time>2025-12-26T18:47:36.000Z</time></trkpt>
        <trkpt lat="28.6821487" lon="104.6132553"><ele>345.62</ele><time>2025-12-26T18:47:46.000Z</time></trkpt>
        <trkpt lat="28.6820634" lon="104.6133212"><ele>345.3</ele><time>2025-12-26T18:47:56.000Z</time></trkpt>
        <trkpt lat="28.6819802" lon="104.6133917"><ele>344.39</ele><time>2025-12-26T18:48:06.000Z</time></trkpt>
        <trkpt lat="28.681902" lon="104.6134582"><ele>344.1</ele><time>2025-12-26T18:48:16.000Z</time></trkpt>
        <trkpt lat="28.6818184" lon="104.6135337"><ele>343.58</ele><time>2025-12-26T18:48:26.000Z</time></trkpt>
        <trkpt lat="28.6817439" lon="104.6136007"><ele>343.09</ele><time>2025-12-26T18:48:34.000Z</time></trkpt>
        <trkpt lat="28.6816712" lon="104.6136677"><ele>342.24</ele><time>2025-12-26T18:48:42.000Z</time></trkpt>
        <trkpt lat="28.6815983" lon="104.6137381"><ele>341.52</ele><time>2025-12-26T18:48:50.000Z</time></trkpt>
        <trkpt lat="28.6815244" lon="104.6138125"><ele>341.31</ele><time>2025-12-26T18:48:59.000Z</time></trkpt>
        <trkpt lat="28.6814405" lon="104.6137815"><ele>342.86</ele><time>2025-12-26T18:49:15.000Z</time></trkpt>
        <trkpt lat="28.6813492" lon="104.6137369"><ele>344.84</ele><time>2025-12-26T18:49:25.000Z</time></trkpt>
        <trkpt lat="28.6812506" lon="104.6136829"><ele>346.17</ele><time>2025-12-26T18:49:35.000Z</time></trkpt>
        <trkpt lat="28.6811595" lon="104.6136164"><ele>347.43</ele><time>2025-12-26T18:49:45.000Z</time></trkpt>
        <trkpt lat="28.6810906" lon="104.6135229"><ele>348.51</ele><time>2025-12-26T18:49:55.000Z</time></trkpt>
        <trkpt lat="28.6810101" lon="104.6134576"><ele>349.18</ele><time>2025-12-26T18:50:03.000Z</time></trkpt>
        <trkpt lat="28.6809537" lon="104.6133624"><ele>348.99</ele><time>2025-12-26T18:50:13.000Z</time></trkpt>
        <trkpt lat="28.680874" lon="104.6133542"><ele>349</ele><time>2025-12-26T18:50:23.000Z</time></trkpt>
        <trkpt lat="28.6807882" lon="104.6133014"><ele>348.73</ele><time>2025-12-26T18:50:33.000Z</time></trkpt>
        <trkpt lat="28.680704" lon="104.6132409"><ele>348.7</ele><time>2025-12-26T18:50:43.000Z</time></trkpt>
        <trkpt lat="28.6806213" lon="104.6131799"><ele>348.53</ele><time>2025-12-26T18:50:53.000Z</time></trkpt>
        <trkpt lat="28.6805767" lon="104.6131416"><ele>348.37</ele><time>2025-12-26T18:51:01.000Z</time></trkpt>
        <trkpt lat="28.6805317" lon="104.6130579"><ele>348.52</ele><time>2025-12-26T18:51:11.000Z</time></trkpt>
        <trkpt lat="28.6804677" lon="104.6129771"><ele>348.6</ele><time>2025-12-26T18:51:19.000Z</time></trkpt>
        <trkpt lat="28.6804536" lon="104.6129576"><ele>348.53</ele><time>2025-12-26T18:51:21.000Z</time></trkpt>
        <trkpt lat="28.6804068" lon="104.6130294"><ele>348.56</ele><time>2025-12-26T18:51:33.000Z</time></trkpt>
        <trkpt lat="28.6803485" lon="104.613126"><ele>348.54</ele><time>2025-12-26T18:51:41.000Z</time></trkpt>
        <trkpt lat="28.6802626" lon="104.6131585"><ele>348.37</ele><time>2025-12-26T18:51:55.000Z</time></trkpt>
        <trkpt lat="28.6801717" lon="104.6131221"><ele>348.18</ele><time>2025-12-26T18:52:07.000Z</time></trkpt>
        <trkpt lat="28.6800952" lon="104.6130379"><ele>348.13</ele><time>2025-12-26T18:52:21.000Z</time></trkpt>
        <trkpt lat="28.6800211" lon="104.6129583"><ele>348.4</ele><time>2025-12-26T18:52:33.000Z</time></trkpt>
        <trkpt lat="28.6799354" lon="104.6129296"><ele>348.35</ele><time>2025-12-26T18:52:47.000Z</time></trkpt>
        <trkpt lat="28.6799274" lon="104.6130014"><ele>348.58</ele><time>2025-12-26T18:52:57.000Z</time></trkpt>
        <trkpt lat="28.6798662" lon="104.6130683"><ele>349.06</ele><time>2025-12-26T18:53:11.000Z</time></trkpt>
        <trkpt lat="28.6797744" lon="104.6130823"><ele>348.9</ele><time>2025-12-26T18:53:25.000Z</time></trkpt>
        <trkpt lat="28.6797011" lon="104.6130205"><ele>348.6</ele><time>2025-12-26T18:53:43.000Z</time></trkpt>
        <trkpt lat="28.6796581" lon="104.6129141"><ele>348.33</ele><time>2025-12-26T18:53:57.000Z</time></trkpt>
        <trkpt lat="28.6795897" lon="104.6128302"><ele>348.59</ele><time>2025-12-26T18:54:11.000Z</time></trkpt>
        <trkpt lat="28.6795897" lon="104.6128302"><ele>348.59</ele><time>2025-12-26T18:54:35.000Z</time></trkpt>
        <trkpt lat="28.6795897" lon="104.6128302"><ele>348.59</ele><time>2025-12-26T18:55:17.000Z</time></trkpt>
        <trkpt lat="28.6795897" lon="104.6128302"><ele>348.59</ele><time>2025-12-26T18:55:33.000Z</time></trkpt>
        <trkpt lat="28.6794907" lon="104.6128609"><ele>350.45</ele><time>2025-12-26T18:56:29.000Z</time></trkpt>
        <trkpt lat="28.6794907" lon="104.6128609"><ele>350.45</ele><time>2025-12-26T18:56:41.000Z</time></trkpt>
        <trkpt lat="28.6794385" lon="104.6127751"><ele>352.43</ele><time>2025-12-26T18:57:17.000Z</time></trkpt>
        <trkpt lat="28.6793619" lon="104.6128019"><ele>353.86</ele><time>2025-12-26T18:57:25.000Z</time></trkpt>
        <trkpt lat="28.6792748" lon="104.6128353"><ele>353.88</ele><time>2025-12-26T18:57:33.000Z</time></trkpt>
        <trkpt lat="28.6791803" lon="104.6128473"><ele>353.73</ele><time>2025-12-26T18:57:45.000Z</time></trkpt>
        <trkpt lat="28.6790946" lon="104.6129038"><ele>352.98</ele><time>2025-12-26T18:57:55.000Z</time></trkpt>
        <trkpt lat="28.6790488" lon="104.6130069"><ele>352.07</ele><time>2025-12-26T18:58:05.000Z</time></trkpt>
        <trkpt lat="28.6789774" lon="104.6130988"><ele>352.26</ele><time>2025-12-26T18:58:19.000Z</time></trkpt>
        <trkpt lat="28.6789027" lon="104.6131897"><ele>353.2</ele><time>2025-12-26T18:58:29.000Z</time></trkpt>
        <trkpt lat="28.6788371" lon="104.6132858"><ele>353.61</ele><time>2025-12-26T18:58:39.000Z</time></trkpt>
        <trkpt lat="28.6787827" lon="104.6133788"><ele>353.68</ele><time>2025-12-26T18:58:49.000Z</time></trkpt>
        <trkpt lat="28.6787126" lon="104.6134626"><ele>353.88</ele><time>2025-12-26T18:59:01.000Z</time></trkpt>
        <trkpt lat="28.6786404" lon="104.61347"><ele>353.62</ele><time>2025-12-26T18:59:11.000Z</time></trkpt>
        <trkpt lat="28.6786404" lon="104.61347"><ele>353.62</ele><time>2025-12-26T18:59:25.000Z</time></trkpt>
        <trkpt lat="28.6785523" lon="104.61344"><ele>354.51</ele><time>2025-12-26T18:59:29.000Z</time></trkpt>
        <trkpt lat="28.6785523" lon="104.61344"><ele>354.51</ele><time>2025-12-26T18:59:33.000Z</time></trkpt>
        <trkpt lat="28.6784623" lon="104.613404"><ele>355.4</ele><time>2025-12-26T18:59:41.000Z</time></trkpt>
        <trkpt lat="28.6783833" lon="104.6134356"><ele>356.17</ele><time>2025-12-26T18:59:47.000Z</time></trkpt>
        <trkpt lat="28.6783705" lon="104.6135292"><ele>357.39</ele><time>2025-12-26T18:59:53.000Z</time></trkpt>
        <trkpt lat="28.6783584" lon="104.6136423"><ele>358.96</ele><time>2025-12-26T19:00:05.000Z</time></trkpt>
        <trkpt lat="28.6783773" lon="104.6137584"><ele>360.09</ele><time>2025-12-26T19:00:15.000Z</time></trkpt>
        <trkpt lat="28.6784032" lon="104.6138708"><ele>361.68</ele><time>2025-12-26T19:00:27.000Z</time></trkpt>
        <trkpt lat="28.6784151" lon="104.6139785"><ele>362.98</ele><time>2025-12-26T19:00:47.000Z</time></trkpt>
        <trkpt lat="28.6784112" lon="104.6140841"><ele>364.48</ele><time>2025-12-26T19:01:01.000Z</time></trkpt>
        <trkpt lat="28.6783524" lon="104.6140449"><ele>367.43</ele><time>2025-12-26T19:01:17.000Z</time></trkpt>
        <trkpt lat="28.6782814" lon="104.6139544"><ele>366.53</ele><time>2025-12-26T19:01:25.000Z</time></trkpt>
        <trkpt lat="28.6782039" lon="104.6138482"><ele>367</ele><time>2025-12-26T19:01:35.000Z</time></trkpt>
        <trkpt lat="28.6781254" lon="104.6137652"><ele>366.73</ele><time>2025-12-26T19:01:45.000Z</time></trkpt>
        <trkpt lat="28.6780343" lon="104.6137579"><ele>367.45</ele><time>2025-12-26T19:01:55.000Z</time></trkpt>
        <trkpt lat="28.6779394" lon="104.6137921"><ele>367.86</ele><time>2025-12-26T19:02:05.000Z</time></trkpt>
        <trkpt lat="28.6778428" lon="104.6138494"><ele>368.8</ele><time>2025-12-26T19:02:15.000Z</time></trkpt>
        <trkpt lat="28.6777555" lon="104.6139169"><ele>369.84</ele><time>2025-12-26T19:02:27.000Z</time></trkpt>
        <trkpt lat="28.6776911" lon="104.614003"><ele>370.71</ele><time>2025-12-26T19:02:37.000Z</time></trkpt>
        <trkpt lat="28.6776257" lon="104.6140928"><ele>372.08</ele><time>2025-12-26T19:02:47.000Z</time></trkpt>
        <trkpt lat="28.6775637" lon="104.6141843"><ele>373.89</ele><time>2025-12-26T19:02:55.000Z</time></trkpt>
        <trkpt lat="28.6774759" lon="104.614221"><ele>374.57</ele><time>2025-12-26T19:03:05.000Z</time></trkpt>
        <trkpt lat="28.6773845" lon="104.6141849"><ele>375.73</ele><time>2025-12-26T19:03:15.000Z</time></trkpt>
        <trkpt lat="28.6772782" lon="104.6141419"><ele>375.88</ele><time>2025-12-26T19:03:25.000Z</time></trkpt>
        <trkpt lat="28.6771898" lon="104.6140772"><ele>376.97</ele><time>2025-12-26T19:03:33.000Z</time></trkpt>
        <trkpt lat="28.6771308" lon="104.6139673"><ele>377.11</ele><time>2025-12-26T19:03:41.000Z</time></trkpt>
        <trkpt lat="28.6771142" lon="104.6138429"><ele>376.81</ele><time>2025-12-26T19:03:49.000Z</time></trkpt>
        <trkpt lat="28.6771083" lon="104.6137286"><ele>376.73</ele><time>2025-12-26T19:03:57.000Z</time></trkpt>
        <trkpt lat="28.6770967" lon="104.6136112"><ele>376.55</ele><time>2025-12-26T19:04:07.000Z</time></trkpt>
        <trkpt lat="28.677102" lon="104.6134951"><ele>376.62</ele><time>2025-12-26T19:04:17.000Z</time></trkpt>
        <trkpt lat="28.6771076" lon="104.6134387"><ele>376.29</ele><time>2025-12-26T19:04:23.000Z</time></trkpt>
        <trkpt lat="28.6771274" lon="104.6133491"><ele>376.72</ele><time>2025-12-26T19:04:33.000Z</time></trkpt>
        <trkpt lat="28.6771859" lon="104.6132615"><ele>376.23</ele><time>2025-12-26T19:04:41.000Z</time></trkpt>
        <trkpt lat="28.6772659" lon="104.6131804"><ele>376.22</ele><time>2025-12-26T19:04:51.000Z</time></trkpt>
        <trkpt lat="28.6773451" lon="104.613107"><ele>375.5</ele><time>2025-12-26T19:05:01.000Z</time></trkpt>
        <trkpt lat="28.6774105" lon="104.613025"><ele>375</ele><time>2025-12-26T19:05:11.000Z</time></trkpt>
        <trkpt lat="28.6773865" lon="104.6129259"><ele>374.18</ele><time>2025-12-26T19:05:23.000Z</time></trkpt>
        <trkpt lat="28.6772912" lon="104.6128883"><ele>372.77</ele><time>2025-12-26T19:05:33.000Z</time></trkpt>
        <trkpt lat="28.6771819" lon="104.6128762"><ele>371.58</ele><time>2025-12-26T19:05:43.000Z</time></trkpt>
        <trkpt lat="28.6770778" lon="104.6128704"><ele>370.33</ele><time>2025-12-26T19:05:53.000Z</time></trkpt>
        <trkpt lat="28.6769857" lon="104.6128425"><ele>368.93</ele><time>2025-12-26T19:06:03.000Z</time></trkpt>
        <trkpt lat="28.676894" lon="104.6127977"><ele>367.89</ele><time>2025-12-26T19:06:19.000Z</time></trkpt>
        <trkpt lat="28.6768097" lon="104.6128211"><ele>367.73</ele><time>2025-12-26T19:06:27.000Z</time></trkpt>
        <trkpt lat="28.6767299" lon="104.612873"><ele>368.48</ele><time>2025-12-26T19:06:35.000Z</time></trkpt>
        <trkpt lat="28.676632" lon="104.6129077"><ele>369.88</ele><time>2025-12-26T19:06:45.000Z</time></trkpt>
        <trkpt lat="28.6765429" lon="104.612889"><ele>371.54</ele><time>2025-12-26T19:06:55.000Z</time></trkpt>
        <trkpt lat="28.6764592" lon="104.6128305"><ele>373.37</ele><time>2025-12-26T19:07:07.000Z</time></trkpt>
        <trkpt lat="28.6763804" lon="104.6127587"><ele>374.43</ele><time>2025-12-26T19:07:17.000Z</time></trkpt>
        <trkpt lat="28.6762918" lon="104.612727"><ele>374.93</ele><time>2025-12-26T19:07:27.000Z</time></trkpt>
        <trkpt lat="28.6762022" lon="104.6127364"><ele>375.02</ele><time>2025-12-26T19:07:39.000Z</time></trkpt>
        <trkpt lat="28.6762022" lon="104.6127364"><ele>375.02</ele><time>2025-12-26T19:07:49.000Z</time></trkpt>
        <trkpt lat="28.6761419" lon="104.6128187"><ele>374.97</ele><time>2025-12-26T19:08:19.000Z</time></trkpt>
        <trkpt lat="28.6761419" lon="104.6128187"><ele>374.97</ele><time>2025-12-26T19:08:29.000Z</time></trkpt>
        <trkpt lat="28.6761336" lon="104.6129354"><ele>376.33</ele><time>2025-12-26T19:08:47.000Z</time></trkpt>
        <trkpt lat="28.6761368" lon="104.6130544"><ele>377.96</ele><time>2025-12-26T19:09:05.000Z</time></trkpt>
        <trkpt lat="28.6761099" lon="104.6131617"><ele>379.76</ele><time>2025-12-26T19:09:23.000Z</time></trkpt>
        <trkpt lat="28.676065" lon="104.6132576"><ele>381.88</ele><time>2025-12-26T19:09:41.000Z</time></trkpt>
        <trkpt lat="28.6760191" lon="104.6133501"><ele>384.23</ele><time>2025-12-26T19:09:57.000Z</time></trkpt>
        <trkpt lat="28.6759654" lon="104.6134418"><ele>386.36</ele><time>2025-12-26T19:10:17.000Z</time></trkpt>
        <trkpt lat="28.6758807" lon="104.6134932"><ele>389.22</ele><time>2025-12-26T19:10:37.000Z</time></trkpt>
        <trkpt lat="28.6757947" lon="104.6135423"><ele>391.25</ele><time>2025-12-26T19:10:57.000Z</time></trkpt>
        <trkpt lat="28.6757055" lon="104.6135838"><ele>393.06</ele><time>2025-12-26T19:11:21.000Z</time></trkpt>
        <trkpt lat="28.6756188" lon="104.6136212"><ele>395.3</ele><time>2025-12-26T19:11:37.000Z</time></trkpt>
        <trkpt lat="28.6755464" lon="104.613687"><ele>397.84</ele><time>2025-12-26T19:11:55.000Z</time></trkpt>
        <trkpt lat="28.67553" lon="104.6137872"><ele>399.95</ele><time>2025-12-26T19:12:19.000Z</time></trkpt>
        <trkpt lat="28.675486" lon="104.6138819"><ele>401.9</ele><time>2025-12-26T19:12:41.000Z</time></trkpt>
        <trkpt lat="28.675449" lon="104.6139835"><ele>404.97</ele><time>2025-12-26T19:13:03.000Z</time></trkpt>
        <trkpt lat="28.6754575" lon="104.6140863"><ele>407.83</ele><time>2025-12-26T19:13:19.000Z</time></trkpt>
        <trkpt lat="28.6754487" lon="104.6141949"><ele>410.03</ele><time>2025-12-26T19:13:49.000Z</time></trkpt>
        <trkpt lat="28.6754487" lon="104.6141949"><ele>410.03</ele><time>2025-12-26T19:14:09.000Z</time></trkpt>
        <trkpt lat="28.6754487" lon="104.6141949"><ele>410.03</ele><time>2025-12-26T19:14:41.000Z</time></trkpt>
        <trkpt lat="28.6754487" lon="104.6141949"><ele>410.03</ele><time>2025-12-26T19:14:57.000Z</time></trkpt>
        <trkpt lat="28.675349" lon="104.6142074"><ele>411.92</ele><time>2025-12-26T19:16:51.000Z</time></trkpt>
        <trkpt lat="28.675349" lon="104.6142074"><ele>411.92</ele><time>2025-12-26T19:17:11.000Z</time></trkpt>
        <trkpt lat="28.6752641" lon="104.6141725"><ele>417.25</ele><time>2025-12-26T19:17:27.000Z</time></trkpt>
        <trkpt lat="28.6751748" lon="104.6141719"><ele>420.94</ele><time>2025-12-26T19:17:47.000Z</time></trkpt>
        <trkpt lat="28.6750827" lon="104.6141852"><ele>424.58</ele><time>2025-12-26T19:18:05.000Z</time></trkpt>
        <trkpt lat="28.6749906" lon="104.6142047"><ele>428.19</ele><time>2025-12-26T19:18:23.000Z</time></trkpt>
        <trkpt lat="28.6748994" lon="104.6142268"><ele>431.89</ele><time>2025-12-26T19:18:37.000Z</time></trkpt>
        <trkpt lat="28.6747992" lon="104.6142534"><ele>435.08</ele><time>2025-12-26T19:19:01.000Z</time></trkpt>
        <trkpt lat="28.6747067" lon="104.6142784"><ele>437.59</ele><time>2025-12-26T19:19:15.000Z</time></trkpt>
        <trkpt lat="28.6746149" lon="104.614291"><ele>441.12</ele><time>2025-12-26T19:19:29.000Z</time></trkpt>
        <trkpt lat="28.674522" lon="104.6142739"><ele>444.83</ele><time>2025-12-26T19:19:47.000Z</time></trkpt>
        <trkpt lat="28.6744344" lon="104.6142887"><ele>450.04</ele><time>2025-12-26T19:20:11.000Z</time></trkpt>
        <trkpt lat="28.6743451" lon="104.614304"><ele>453.16</ele><time>2025-12-26T19:20:27.000Z</time></trkpt>
        <trkpt lat="28.6742595" lon="104.6143483"><ele>455.53</ele><time>2025-12-26T19:20:43.000Z</time></trkpt>
        <trkpt lat="28.6741823" lon="104.6144133"><ele>457.26</ele><time>2025-12-26T19:21:05.000Z</time></trkpt>
        <trkpt lat="28.6741823" lon="104.6144133"><ele>457.26</ele><time>2025-12-26T19:21:29.000Z</time></trkpt>
        <trkpt lat="28.6741024" lon="104.6144777"><ele>459.48</ele><time>2025-12-26T19:21:41.000Z</time></trkpt>
        <trkpt lat="28.6741024" lon="104.6144777"><ele>459.48</ele><time>2025-12-26T19:21:55.000Z</time></trkpt>
        <trkpt lat="28.6740225" lon="104.6145314"><ele>461.5</ele><time>2025-12-26T19:22:37.000Z</time></trkpt>
        <trkpt lat="28.6739356" lon="104.614581"><ele>462.36</ele><time>2025-12-26T19:22:55.000Z</time></trkpt>
        <trkpt lat="28.6738712" lon="104.6146539"><ele>464.84</ele><time>2025-12-26T19:23:13.000Z</time></trkpt>
        <trkpt lat="28.6738712" lon="104.6146539"><ele>464.84</ele><time>2025-12-26T19:23:33.000Z</time></trkpt>
        <trkpt lat="28.6738254" lon="104.6147439"><ele>468.31</ele><time>2025-12-26T19:23:43.000Z</time></trkpt>
        <trkpt lat="28.6738254" lon="104.6147439"><ele>468.31</ele><time>2025-12-26T19:24:01.000Z</time></trkpt>
        <trkpt lat="28.6738254" lon="104.6147439"><ele>468.31</ele><time>2025-12-26T19:24:01.000Z</time></trkpt>
        <trkpt lat="28.6738254" lon="104.6147439"><ele>468.31</ele><time>2025-12-26T19:24:15.000Z</time></trkpt>
        <trkpt lat="28.6738254" lon="104.6147439"><ele>468.31</ele><time>2025-12-26T19:24:33.000Z</time></trkpt>
        <trkpt lat="28.6738254" lon="104.6147439"><ele>468.31</ele><time>2025-12-26T19:24:45.000Z</time></trkpt>
        <trkpt lat="28.6738254" lon="104.6147439"><ele>468.31</ele><time>2025-12-26T19:25:25.000Z</time></trkpt>
        <trkpt lat="28.6738254" lon="104.6147439"><ele>468.31</ele><time>2025-12-26T19:25:29.000Z</time></trkpt>
        <trkpt lat="28.6738254" lon="104.6147439"><ele>468.31</ele><time>2025-12-26T19:25:43.000Z</time></trkpt>
        <trkpt lat="28.6737603" lon="104.6148105"><ele>470.3</ele><time>2025-12-26T19:25:59.000Z</time></trkpt>
        <trkpt lat="28.6737603" lon="104.6148105"><ele>470.3</ele><time>2025-12-26T19:26:13.000Z</time></trkpt>
        <trkpt lat="28.6737603" lon="104.6148105"><ele>470.3</ele><time>2025-12-26T19:27:19.000Z</time></trkpt>
        <trkpt lat="28.6736818" lon="104.614865"><ele>471.7</ele><time>2025-12-26T19:27:37.000Z</time></trkpt>
        <trkpt lat="28.6736818" lon="104.614865"><ele>471.7</ele><time>2025-12-26T19:27:41.000Z</time></trkpt>
        <trkpt lat="28.6736818" lon="104.614865"><ele>471.7</ele><time>2025-12-26T19:27:57.000Z</time></trkpt>
        <trkpt lat="28.6736046" lon="104.6149216"><ele>473.37</ele><time>2025-12-26T19:27:59.000Z</time></trkpt>
        <trkpt lat="28.6736046" lon="104.6149216"><ele>473.37</ele><time>2025-12-26T19:28:27.000Z</time></trkpt>
        <trkpt lat="28.6735485" lon="104.6150062"><ele>475.58</ele><time>2025-12-26T19:28:49.000Z</time></trkpt>
        <trkpt lat="28.6734858" lon="104.6150859"><ele>477.17</ele><time>2025-12-26T19:29:11.000Z</time></trkpt>
        <trkpt lat="28.6734188" lon="104.6151635"><ele>478.4</ele><time>2025-12-26T19:29:35.000Z</time></trkpt>
        <trkpt lat="28.6734188" lon="104.6151635"><ele>478.4</ele><time>2025-12-26T19:30:13.000Z</time></trkpt>
        <trkpt lat="28.6734188" lon="104.6151635"><ele>478.4</ele><time>2025-12-26T19:30:21.000Z</time></trkpt>
        <trkpt lat="28.6734188" lon="104.6151635"><ele>478.4</ele><time>2025-12-26T19:31:03.000Z</time></trkpt>
        <trkpt lat="28.6732964" lon="104.6153047"><ele>480.6</ele><time>2025-12-26T19:31:11.000Z</time></trkpt>
        <trkpt lat="28.6732964" lon="104.6153047"><ele>480.6</ele><time>2025-12-26T19:31:17.000Z</time></trkpt>
        <trkpt lat="28.6732638" lon="104.6154003"><ele>484.05</ele><time>2025-12-26T19:32:01.000Z</time></trkpt>
        <trkpt lat="28.6732638" lon="104.6154003"><ele>484.05</ele><time>2025-12-26T19:32:19.000Z</time></trkpt>
        <trkpt lat="28.6732638" lon="104.6154003"><ele>484.05</ele><time>2025-12-26T19:32:23.000Z</time></trkpt>
        <trkpt lat="28.6732638" lon="104.6154003"><ele>484.05</ele><time>2025-12-26T19:32:37.000Z</time></trkpt>
        <trkpt lat="28.6732638" lon="104.6154003"><ele>484.05</ele><time>2025-12-26T19:32:43.000Z</time></trkpt>
        <trkpt lat="28.6732638" lon="104.6154003"><ele>484.05</ele><time>2025-12-26T19:32:57.000Z</time></trkpt>
        <trkpt lat="28.6732086" lon="104.6154812"><ele>486.6</ele><time>2025-12-26T19:33:01.000Z</time></trkpt>
        <trkpt lat="28.6732086" lon="104.6154812"><ele>486.6</ele><time>2025-12-26T19:33:13.000Z</time></trkpt>
        <trkpt lat="28.6732086" lon="104.6154812"><ele>486.6</ele><time>2025-12-26T19:34:15.000Z</time></trkpt>
        <trkpt lat="28.6732086" lon="104.6154812"><ele>486.6</ele><time>2025-12-26T19:34:41.000Z</time></trkpt>
        <trkpt lat="28.6732086" lon="104.6154812"><ele>486.6</ele><time>2025-12-26T19:35:11.000Z</time></trkpt>
        <trkpt lat="28.6732086" lon="104.6154812"><ele>486.6</ele><time>2025-12-26T19:35:33.000Z</time></trkpt>
        <trkpt lat="28.6732086" lon="104.6154812"><ele>486.6</ele><time>2025-12-26T19:35:47.000Z</time></trkpt>
        <trkpt lat="28.6732086" lon="104.6154812"><ele>486.6</ele><time>2025-12-26T19:35:55.000Z</time></trkpt>
        <trkpt lat="28.6732086" lon="104.6154812"><ele>486.6</ele><time>2025-12-26T19:36:11.000Z</time></trkpt>
        <trkpt lat="28.6732086" lon="104.6154812"><ele>486.6</ele><time>2025-12-26T19:36:31.000Z</time></trkpt>
        <trkpt lat="28.6732086" lon="104.6154812"><ele>486.6</ele><time>2025-12-26T19:37:03.000Z</time></trkpt>
        <trkpt lat="28.6730362" lon="104.6157373"><ele>489.51</ele><time>2025-12-26T19:37:05.000Z</time></trkpt>
        <trkpt lat="28.6730362" lon="104.6157373"><ele>489.51</ele><time>2025-12-26T19:37:13.000Z</time></trkpt>
        <trkpt lat="28.6729647" lon="104.6158093"><ele>492.24</ele><time>2025-12-26T19:38:07.000Z</time></trkpt>
        <trkpt lat="28.6729647" lon="104.6158093"><ele>492.24</ele><time>2025-12-26T19:38:17.000Z</time></trkpt>
        <trkpt lat="28.6729007" lon="104.6158866"><ele>494.35</ele><time>2025-12-26T19:38:55.000Z</time></trkpt>
        <trkpt lat="28.6729007" lon="104.6158866"><ele>494.35</ele><time>2025-12-26T19:39:21.000Z</time></trkpt>
        <trkpt lat="28.6728436" lon="104.6159657"><ele>495.01</ele><time>2025-12-26T19:40:01.000Z</time></trkpt>
        <trkpt lat="28.6728436" lon="104.6159657"><ele>495.01</ele><time>2025-12-26T19:40:31.000Z</time></trkpt>
        <trkpt lat="28.6728436" lon="104.6159657"><ele>495.01</ele><time>2025-12-26T19:40:41.000Z</time></trkpt>
        <trkpt lat="28.6728436" lon="104.6159657"><ele>495.01</ele><time>2025-12-26T19:40:59.000Z</time></trkpt>
        <trkpt lat="28.6728436" lon="104.6159657"><ele>495.01</ele><time>2025-12-26T19:41:13.000Z</time></trkpt>
        <trkpt lat="28.6728436" lon="104.6159657"><ele>495.01</ele><time>2025-12-26T19:41:29.000Z</time></trkpt>
        <trkpt lat="28.6727332" lon="104.6161497"><ele>496.92</ele><time>2025-12-26T19:41:53.000Z</time></trkpt>
        <trkpt lat="28.6727332" lon="104.6161497"><ele>496.92</ele><time>2025-12-26T19:42:05.000Z</time></trkpt>
        <trkpt lat="28.6727008" lon="104.616254"><ele>498.96</ele><time>2025-12-26T19:42:37.000Z</time></trkpt>
        <trkpt lat="28.6727008" lon="104.616254"><ele>498.96</ele><time>2025-12-26T19:42:57.000Z</time></trkpt>
        <trkpt lat="28.6726603" lon="104.6163475"><ele>501.23</ele><time>2025-12-26T19:43:07.000Z</time></trkpt>
        <trkpt lat="28.6726603" lon="104.6163475"><ele>501.23</ele><time>2025-12-26T19:43:31.000Z</time></trkpt>
        <trkpt lat="28.6726408" lon="104.6164533"><ele>503.27</ele><time>2025-12-26T19:43:55.000Z</time></trkpt>
        <trkpt lat="28.6726064" lon="104.6165539"><ele>504.59</ele><time>2025-12-26T19:44:17.000Z</time></trkpt>
        <trkpt lat="28.6725844" lon="104.6166562"><ele>506.12</ele><time>2025-12-26T19:44:33.000Z</time></trkpt>
        <trkpt lat="28.6725844" lon="104.6167641"><ele>507.72</ele><time>2025-12-26T19:44:45.000Z</time></trkpt>
        <trkpt lat="28.6725844" lon="104.6167641"><ele>507.72</ele><time>2025-12-26T19:45:15.000Z</time></trkpt>
        <trkpt lat="28.6725712" lon="104.6168731"><ele>509.05</ele><time>2025-12-26T19:45:23.000Z</time></trkpt>
        <trkpt lat="28.6725712" lon="104.6168731"><ele>509.05</ele><time>2025-12-26T19:45:27.000Z</time></trkpt>
        <trkpt lat="28.6725712" lon="104.6168731"><ele>509.05</ele><time>2025-12-26T19:45:41.000Z</time></trkpt>
        <trkpt lat="28.6725185" lon="104.6169564"><ele>514.28</ele><time>2025-12-26T19:45:51.000Z</time></trkpt>
        <trkpt lat="28.6725185" lon="104.6169564"><ele>514.28</ele><time>2025-12-26T19:46:07.000Z</time></trkpt>
        <trkpt lat="28.6724397" lon="104.6170139"><ele>516.62</ele><time>2025-12-26T19:47:05.000Z</time></trkpt>
        <trkpt lat="28.6723825" lon="104.6170949"><ele>518.03</ele><time>2025-12-26T19:47:33.000Z</time></trkpt>
        <trkpt lat="28.6724187" lon="104.6171694"><ele>520.54</ele><time>2025-12-26T19:48:03.000Z</time></trkpt>
        <trkpt lat="28.6724892" lon="104.6172406"><ele>522.81</ele><time>2025-12-26T19:48:31.000Z</time></trkpt>
        <trkpt lat="28.6725471" lon="104.6173268"><ele>526.15</ele><time>2025-12-26T19:48:55.000Z</time></trkpt>
        <trkpt lat="28.672632" lon="104.6173674"><ele>528.92</ele><time>2025-12-26T19:49:17.000Z</time></trkpt>
        <trkpt lat="28.6727284" lon="104.6173995"><ele>531.59</ele><time>2025-12-26T19:49:33.000Z</time></trkpt>
        <trkpt lat="28.6728258" lon="104.6174225"><ele>533.63</ele><time>2025-12-26T19:49:47.000Z</time></trkpt>
        <trkpt lat="28.6729151" lon="104.6174748"><ele>535.34</ele><time>2025-12-26T19:50:01.000Z</time></trkpt>
        <trkpt lat="28.6730155" lon="104.6175023"><ele>538.26</ele><time>2025-12-26T19:50:15.000Z</time></trkpt>
        <trkpt lat="28.6731235" lon="104.6175073"><ele>540.45</ele><time>2025-12-26T19:50:25.000Z</time></trkpt>
        <trkpt lat="28.6732232" lon="104.6174613"><ele>541</ele><time>2025-12-26T19:50:35.000Z</time></trkpt>
        <trkpt lat="28.6732842" lon="104.6173683"><ele>541.29</ele><time>2025-12-26T19:50:43.000Z</time></trkpt>
        <trkpt lat="28.6733424" lon="104.617273"><ele>542.37</ele><time>2025-12-26T19:50:51.000Z</time></trkpt>
        <trkpt lat="28.6733982" lon="104.6171713"><ele>543.07</ele><time>2025-12-26T19:51:01.000Z</time></trkpt>
        <trkpt lat="28.6734455" lon="104.6170678"><ele>542.82</ele><time>2025-12-26T19:51:11.000Z</time></trkpt>
        <trkpt lat="28.6734992" lon="104.6169709"><ele>543.05</ele><time>2025-12-26T19:51:21.000Z</time></trkpt>
        <trkpt lat="28.6735867" lon="104.6169341"><ele>543.78</ele><time>2025-12-26T19:51:35.000Z</time></trkpt>
        <trkpt lat="28.6736894" lon="104.616935"><ele>544.94</ele><time>2025-12-26T19:51:51.000Z</time></trkpt>
        <trkpt lat="28.6737949" lon="104.6169396"><ele>546.66</ele><time>2025-12-26T19:52:01.000Z</time></trkpt>
        <trkpt lat="28.6739031" lon="104.6169615"><ele>547.96</ele><time>2025-12-26T19:52:17.000Z</time></trkpt>
        <trkpt lat="28.673971" lon="104.616966"><ele>547.83</ele><time>2025-12-26T19:52:25.000Z</time></trkpt>
        <trkpt lat="28.6740485" lon="104.616941"><ele>548.92</ele><time>2025-12-26T19:52:37.000Z</time></trkpt>
        <trkpt lat="28.6741343" lon="104.6169185"><ele>550.37</ele><time>2025-12-26T19:52:53.000Z</time></trkpt>
        <trkpt lat="28.674223" lon="104.616893"><ele>551.57</ele><time>2025-12-26T19:53:07.000Z</time></trkpt>
        <trkpt lat="28.6743085" lon="104.6168472"><ele>552.74</ele><time>2025-12-26T19:53:35.000Z</time></trkpt>
        <trkpt lat="28.6744" lon="104.61682"><ele>551.3</ele><time>2025-12-26T19:53:53.000Z</time></trkpt>
        <trkpt lat="28.674482" lon="104.61678"><ele>549.45</ele><time>2025-12-26T19:54:03.000Z</time></trkpt>
        <trkpt lat="28.6745606" lon="104.6168211"><ele>548.66</ele><time>2025-12-26T19:54:29.000Z</time></trkpt>
        <trkpt lat="28.6746124" lon="104.6167724"><ele>548.1</ele><time>2025-12-26T19:54:39.000Z</time></trkpt>
        <trkpt lat="28.6746489" lon="104.6166817"><ele>549.31</ele><time>2025-12-26T19:55:01.000Z</time></trkpt>
        <trkpt lat="28.6747219" lon="104.6166806"><ele>550.18</ele><time>2025-12-26T19:55:45.000Z</time></trkpt>
        <trkpt lat="28.6748091" lon="104.6166547"><ele>553.23</ele><time>2025-12-26T19:56:07.000Z</time></trkpt>
        <trkpt lat="28.6749039" lon="104.6166042"><ele>554.18</ele><time>2025-12-26T19:56:17.000Z</time></trkpt>
        <trkpt lat="28.674998" lon="104.6166142"><ele>554.4</ele><time>2025-12-26T19:56:29.000Z</time></trkpt>
        <trkpt lat="28.6750786" lon="104.6166658"><ele>555.01</ele><time>2025-12-26T19:56:45.000Z</time></trkpt>
        <trkpt lat="28.6751495" lon="104.6167504"><ele>556.84</ele><time>2025-12-26T19:57:03.000Z</time></trkpt>
        <trkpt lat="28.6752046" lon="104.6168471"><ele>559.02</ele><time>2025-12-26T19:57:19.000Z</time></trkpt>
        <trkpt lat="28.6752181" lon="104.6169582"><ele>560.84</ele><time>2025-12-26T19:57:31.000Z</time></trkpt>
        <trkpt lat="28.6752041" lon="104.6170665"><ele>562.27</ele><time>2025-12-26T19:57:41.000Z</time></trkpt>
        <trkpt lat="28.6751812" lon="104.617173"><ele>562.68</ele><time>2025-12-26T19:57:49.000Z</time></trkpt>
        <trkpt lat="28.6751553" lon="104.6172874"><ele>563.71</ele><time>2025-12-26T19:58:01.000Z</time></trkpt>
        <trkpt lat="28.675141" lon="104.6174018"><ele>563.85</ele><time>2025-12-26T19:58:11.000Z</time></trkpt>
        <trkpt lat="28.6751245" lon="104.6175153"><ele>564.14</ele><time>2025-12-26T19:58:21.000Z</time></trkpt>
        <trkpt lat="28.6751138" lon="104.6176309"><ele>565.15</ele><time>2025-12-26T19:58:33.000Z</time></trkpt>
        <trkpt lat="28.6751836" lon="104.617695"><ele>566.27</ele><time>2025-12-26T19:58:45.000Z</time></trkpt>
        <trkpt lat="28.6752452" lon="104.6177789"><ele>566.97</ele><time>2025-12-26T19:59:05.000Z</time></trkpt>
        <trkpt lat="28.6753098" lon="104.6178693"><ele>568.24</ele><time>2025-12-26T19:59:21.000Z</time></trkpt>
        <trkpt lat="28.6753724" lon="104.6179518"><ele>570.04</ele><time>2025-12-26T19:59:35.000Z</time></trkpt>
        <trkpt lat="28.6754383" lon="104.6180352"><ele>571.26</ele><time>2025-12-26T19:59:49.000Z</time></trkpt>
        <trkpt lat="28.6755099" lon="104.6181207"><ele>572.06</ele><time>2025-12-26T20:00:03.000Z</time></trkpt>
        <trkpt lat="28.6756005" lon="104.6181806"><ele>572.74</ele><time>2025-12-26T20:00:13.000Z</time></trkpt>
        <trkpt lat="28.6757021" lon="104.6181923"><ele>574.14</ele><time>2025-12-26T20:00:25.000Z</time></trkpt>
        <trkpt lat="28.6757905" lon="104.6182274"><ele>575.02</ele><time>2025-12-26T20:00:35.000Z</time></trkpt>
        <trkpt lat="28.6758289" lon="104.6183157"><ele>575.59</ele><time>2025-12-26T20:00:47.000Z</time></trkpt>
        <trkpt lat="28.6758992" lon="104.6183194"><ele>575.5</ele><time>2025-12-26T20:01:13.000Z</time></trkpt>
        <trkpt lat="28.675984" lon="104.6182983"><ele>575.56</ele><time>2025-12-26T20:01:33.000Z</time></trkpt>
        <trkpt lat="28.6760763" lon="104.6182977"><ele>576.07</ele><time>2025-12-26T20:01:47.000Z</time></trkpt>
        <trkpt lat="28.6761607" lon="104.6183405"><ele>577.02</ele><time>2025-12-26T20:02:09.000Z</time></trkpt>
        <trkpt lat="28.6762499" lon="104.6183821"><ele>579.49</ele><time>2025-12-26T20:02:31.000Z</time></trkpt>
        <trkpt lat="28.6763374" lon="104.6184252"><ele>582.59</ele><time>2025-12-26T20:02:47.000Z</time></trkpt>
        <trkpt lat="28.6764352" lon="104.6184447"><ele>584.83</ele><time>2025-12-26T20:03:03.000Z</time></trkpt>
        <trkpt lat="28.6765091" lon="104.6185168"><ele>586.28</ele><time>2025-12-26T20:03:17.000Z</time></trkpt>
        <trkpt lat="28.6765971" lon="104.6185729"><ele>587.13</ele><time>2025-12-26T20:03:29.000Z</time></trkpt>
        <trkpt lat="28.676688" lon="104.6186208"><ele>587.95</ele><time>2025-12-26T20:03:43.000Z</time></trkpt>
        <trkpt lat="28.6767782" lon="104.6186591"><ele>589.99</ele><time>2025-12-26T20:03:55.000Z</time></trkpt>
        <trkpt lat="28.6768711" lon="104.6186774"><ele>590.91</ele><time>2025-12-26T20:04:11.000Z</time></trkpt>
        <trkpt lat="28.6769653" lon="104.6186952"><ele>591.43</ele><time>2025-12-26T20:04:27.000Z</time></trkpt>
        <trkpt lat="28.6770615" lon="104.618715"><ele>592</ele><time>2025-12-26T20:04:37.000Z</time></trkpt>
        <trkpt lat="28.6771574" lon="104.6187318"><ele>592.62</ele><time>2025-12-26T20:04:47.000Z</time></trkpt>
        <trkpt lat="28.6772547" lon="104.6187739"><ele>593.42</ele><time>2025-12-26T20:04:55.000Z</time></trkpt>
        <trkpt lat="28.6773495" lon="104.6187931"><ele>593.82</ele><time>2025-12-26T20:05:11.000Z</time></trkpt>
        <trkpt lat="28.6774428" lon="104.618767"><ele>595.62</ele><time>2025-12-26T20:05:23.000Z</time></trkpt>
        <trkpt lat="28.6775304" lon="104.618727"><ele>595.99</ele><time>2025-12-26T20:05:33.000Z</time></trkpt>
        <trkpt lat="28.6776255" lon="104.6187234"><ele>595.8</ele><time>2025-12-26T20:05:43.000Z</time></trkpt>
        <trkpt lat="28.6777297" lon="104.6187486"><ele>596.33</ele><time>2025-12-26T20:05:53.000Z</time></trkpt>
        <trkpt lat="28.6778061" lon="104.6187792"><ele>596.54</ele><time>2025-12-26T20:06:05.000Z</time></trkpt>
        <trkpt lat="28.6778061" lon="104.6187792"><ele>596.54</ele><time>2025-12-26T20:08:03.000Z</time></trkpt>
        <trkpt lat="28.6778061" lon="104.6187792"><ele>596.54</ele><time>2025-12-26T20:08:11.000Z</time></trkpt>
        <trkpt lat="28.6778061" lon="104.6187792"><ele>596.54</ele><time>2025-12-26T20:08:27.000Z</time></trkpt>
        <trkpt lat="28.6778061" lon="104.6187792"><ele>596.54</ele><time>2025-12-26T20:08:31.000Z</time></trkpt>
        <trkpt lat="28.6778061" lon="104.6187792"><ele>596.54</ele><time>2025-12-26T20:08:49.000Z</time></trkpt>
        <trkpt lat="28.6778061" lon="104.6187792"><ele>596.54</ele><time>2025-12-26T20:09:53.000Z</time></trkpt>
        <trkpt lat="28.6778061" lon="104.6187792"><ele>596.54</ele><time>2025-12-26T20:10:41.000Z</time></trkpt>
        <trkpt lat="28.6778061" lon="104.6187792"><ele>596.54</ele><time>2025-12-26T20:10:43.000Z</time></trkpt>
        <trkpt lat="28.6778061" lon="104.6187792"><ele>596.54</ele><time>2025-12-26T20:11:01.000Z</time></trkpt>
        <trkpt lat="28.6778061" lon="104.6187792"><ele>596.54</ele><time>2025-12-26T20:11:29.000Z</time></trkpt>
        <trkpt lat="28.6778061" lon="104.6187792"><ele>596.54</ele><time>2025-12-26T20:11:47.000Z</time></trkpt>
        <trkpt lat="28.6778061" lon="104.6187792"><ele>596.54</ele><time>2025-12-26T20:12:05.000Z</time></trkpt>
        <trkpt lat="28.6778061" lon="104.6187792"><ele>596.54</ele><time>2025-12-26T20:13:53.000Z</time></trkpt>
        <trkpt lat="28.6778061" lon="104.6187792"><ele>596.54</ele><time>2025-12-26T20:14:01.000Z</time></trkpt>
        <trkpt lat="28.6778061" lon="104.6187792"><ele>596.54</ele><time>2025-12-26T20:15:17.000Z</time></trkpt>
        <trkpt lat="28.6778061" lon="104.6187792"><ele>596.54</ele><time>2025-12-26T20:15:29.000Z</time></trkpt>
        <trkpt lat="28.6778061" lon="104.6187792"><ele>596.54</ele><time>2025-12-26T20:16:01.000Z</time></trkpt>
        <trkpt lat="28.6778061" lon="104.6187792"><ele>596.54</ele><time>2025-12-26T20:16:03.000Z</time></trkpt>
        <trkpt lat="28.6778061" lon="104.6187792"><ele>596.54</ele><time>2025-12-26T20:18:05.000Z</time></trkpt>
        <trkpt lat="28.677804" lon="104.6187743"><ele>596.21</ele><time>2025-12-26T20:18:07.000Z</time></trkpt>
        <trkpt lat="28.677804" lon="104.6187743"><ele>596.21</ele><time>2025-12-26T20:18:15.000Z</time></trkpt>
        <trkpt lat="28.677826" lon="104.61877"><ele>595.75</ele><time>2025-12-26T20:18:23.000Z</time></trkpt>
        <trkpt lat="28.677826" lon="104.61877"><ele>595.75</ele><time>2025-12-26T20:19:13.000Z</time></trkpt>
        <trkpt lat="28.6777327" lon="104.6187531"><ele>595.89</ele><time>2025-12-26T20:19:17.000Z</time></trkpt>
        <trkpt lat="28.6777327" lon="104.6187531"><ele>595.89</ele><time>2025-12-26T20:20:44.000Z</time></trkpt>
        <trkpt lat="28.6777327" lon="104.6187531"><ele>595.89</ele><time>2025-12-26T20:22:55.000Z</time></trkpt>
        <trkpt lat="28.6777327" lon="104.6187531"><ele>595.89</ele><time>2025-12-26T20:23:11.000Z</time></trkpt>
        <trkpt lat="28.6777327" lon="104.6187531"><ele>595.89</ele><time>2025-12-26T20:23:45.000Z</time></trkpt>
        <trkpt lat="28.6777327" lon="104.6187531"><ele>595.89</ele><time>2025-12-26T20:23:49.000Z</time></trkpt>
        <trkpt lat="28.6777327" lon="104.6187531"><ele>595.89</ele><time>2025-12-26T20:25:47.000Z</time></trkpt>
        <trkpt lat="28.6777327" lon="104.6187531"><ele>595.89</ele><time>2025-12-26T20:26:05.000Z</time></trkpt>
        <trkpt lat="28.6777327" lon="104.6187531"><ele>595.89</ele><time>2025-12-26T20:27:11.000Z</time></trkpt>
        <trkpt lat="28.6777327" lon="104.6187531"><ele>595.89</ele><time>2025-12-26T20:27:15.000Z</time></trkpt>
        <trkpt lat="28.6777327" lon="104.6187531"><ele>595.89</ele><time>2025-12-26T20:30:23.000Z</time></trkpt>
        <trkpt lat="28.6777327" lon="104.6187531"><ele>595.89</ele><time>2025-12-26T20:30:25.000Z</time></trkpt>
        <trkpt lat="28.6777327" lon="104.6187531"><ele>595.89</ele><time>2025-12-26T20:32:29.000Z</time></trkpt>
        <trkpt lat="28.6777327" lon="104.6187531"><ele>595.89</ele><time>2025-12-26T20:32:31.000Z</time></trkpt>
        <trkpt lat="28.6777327" lon="104.6187531"><ele>595.89</ele><time>2025-12-26T20:36:37.000Z</time></trkpt>
        <trkpt lat="28.6777327" lon="104.6187531"><ele>595.89</ele><time>2025-12-26T20:36:39.000Z</time></trkpt>
        <trkpt lat="28.6777327" lon="104.6187531"><ele>595.89</ele><time>2025-12-26T20:36:57.000Z</time></trkpt>
        <trkpt lat="28.6777327" lon="104.6187531"><ele>595.89</ele><time>2025-12-26T20:37:15.000Z</time></trkpt>
        <trkpt lat="28.6777327" lon="104.6187531"><ele>595.89</ele><time>2025-12-26T20:38:35.000Z</time></trkpt>
        <trkpt lat="28.6777327" lon="104.6187531"><ele>595.89</ele><time>2025-12-26T20:38:37.000Z</time></trkpt>
        <trkpt lat="28.6777327" lon="104.6187531"><ele>595.89</ele><time>2025-12-26T20:40:09.000Z</time></trkpt>
        <trkpt lat="28.6777327" lon="104.6187531"><ele>595.89</ele><time>2025-12-26T20:40:23.000Z</time></trkpt>
        <trkpt lat="28.6777327" lon="104.6187531"><ele>595.89</ele><time>2025-12-26T20:41:21.000Z</time></trkpt>
        <trkpt lat="28.6778292" lon="104.6187716"><ele>596.72</ele><time>2025-12-26T20:41:25.000Z</time></trkpt>
        <trkpt lat="28.6778292" lon="104.6187716"><ele>596.72</ele><time>2025-12-26T20:44:18.000Z</time></trkpt>
        <trkpt lat="28.6777414" lon="104.6187497"><ele>597.48</ele><time>2025-12-26T20:44:58.000Z</time></trkpt>
        <trkpt lat="28.6777414" lon="104.6187497"><ele>597.48</ele><time>2025-12-26T20:45:43.000Z</time></trkpt>
        <trkpt lat="28.6777414" lon="104.6187497"><ele>597.48</ele><time>2025-12-26T20:45:45.000Z</time></trkpt>
        <trkpt lat="28.6777414" lon="104.6187497"><ele>597.48</ele><time>2025-12-26T20:47:03.000Z</time></trkpt>
        <trkpt lat="28.6777414" lon="104.6187497"><ele>597.48</ele><time>2025-12-26T20:47:05.000Z</time></trkpt>
        <trkpt lat="28.6777414" lon="104.6187497"><ele>597.48</ele><time>2025-12-26T20:48:17.000Z</time></trkpt>
        <trkpt lat="28.6777414" lon="104.6187497"><ele>597.48</ele><time>2025-12-26T20:48:27.000Z</time></trkpt>
        <trkpt lat="28.6777414" lon="104.6187497"><ele>597.48</ele><time>2025-12-26T20:49:59.000Z</time></trkpt>
        <trkpt lat="28.6776507" lon="104.6187684"><ele>598.16</ele><time>2025-12-26T20:50:01.000Z</time></trkpt>
        <trkpt lat="28.6776507" lon="104.6187684"><ele>598.16</ele><time>2025-12-26T20:51:28.000Z</time></trkpt>
        <trkpt lat="28.6775679" lon="104.6187214"><ele>598.49</ele><time>2025-12-26T20:51:48.000Z</time></trkpt>
        <trkpt lat="28.6774709" lon="104.6187336"><ele>598.35</ele><time>2025-12-26T20:52:00.000Z</time></trkpt>
        <trkpt lat="28.6773726" lon="104.6187651"><ele>598.39</ele><time>2025-12-26T20:52:12.000Z</time></trkpt>
        <trkpt lat="28.6773391" lon="104.618854"><ele>599.14</ele><time>2025-12-26T20:52:26.000Z</time></trkpt>
        <trkpt lat="28.6772947" lon="104.6189483"><ele>600.23</ele><time>2025-12-26T20:52:56.000Z</time></trkpt>
        <trkpt lat="28.6772412" lon="104.6190551"><ele>599.73</ele><time>2025-12-26T20:53:06.000Z</time></trkpt>
        <trkpt lat="28.6771919" lon="104.6191535"><ele>600.67</ele><time>2025-12-26T20:53:16.000Z</time></trkpt>
        <trkpt lat="28.6771421" lon="104.6192438"><ele>601.48</ele><time>2025-12-26T20:53:24.000Z</time></trkpt>
        <trkpt lat="28.6770853" lon="104.6193281"><ele>602.47</ele><time>2025-12-26T20:53:32.000Z</time></trkpt>
        <trkpt lat="28.6770572" lon="104.6194349"><ele>603.13</ele><time>2025-12-26T20:53:42.000Z</time></trkpt>
        <trkpt lat="28.6770592" lon="104.6195504"><ele>602.62</ele><time>2025-12-26T20:53:52.000Z</time></trkpt>
        <trkpt lat="28.6770709" lon="104.6196642"><ele>601.92</ele><time>2025-12-26T20:54:04.000Z</time></trkpt>
        <trkpt lat="28.67709" lon="104.6197727"><ele>601.88</ele><time>2025-12-26T20:54:20.000Z</time></trkpt>
        <trkpt lat="28.6770781" lon="104.6198744"><ele>602.29</ele><time>2025-12-26T20:54:46.000Z</time></trkpt>
        <trkpt lat="28.6770478" lon="104.6199757"><ele>601.24</ele><time>2025-12-26T20:54:58.000Z</time></trkpt>
        <trkpt lat="28.677003" lon="104.620074"><ele>600.98</ele><time>2025-12-26T20:55:10.000Z</time></trkpt>
        <trkpt lat="28.6769564" lon="104.6201774"><ele>601.71</ele><time>2025-12-26T20:55:22.000Z</time></trkpt>
        <trkpt lat="28.6769144" lon="104.6202779"><ele>602.2</ele><time>2025-12-26T20:55:32.000Z</time></trkpt>
        <trkpt lat="28.6769593" lon="104.6203698"><ele>602.75</ele><time>2025-12-26T20:55:42.000Z</time></trkpt>
        <trkpt lat="28.6770483" lon="104.6204267"><ele>602.73</ele><time>2025-12-26T20:55:52.000Z</time></trkpt>
        <trkpt lat="28.6771631" lon="104.6204538"><ele>602.89</ele><time>2025-12-26T20:56:58.000Z</time></trkpt>
        <trkpt lat="28.6772495" lon="104.6204909"><ele>602.68</ele><time>2025-12-26T20:57:10.000Z</time></trkpt>
        <trkpt lat="28.6773433" lon="104.620504"><ele>602.96</ele><time>2025-12-26T20:57:34.000Z</time></trkpt>
        <trkpt lat="28.6774407" lon="104.6205148"><ele>603.9</ele><time>2025-12-26T20:57:48.000Z</time></trkpt>
        <trkpt lat="28.6775418" lon="104.6205261"><ele>604.93</ele><time>2025-12-26T20:58:00.000Z</time></trkpt>
        <trkpt lat="28.6776431" lon="104.6205468"><ele>606.23</ele><time>2025-12-26T20:58:12.000Z</time></trkpt>
        <trkpt lat="28.6777217" lon="104.6206049"><ele>607.51</ele><time>2025-12-26T20:58:22.000Z</time></trkpt>
        <trkpt lat="28.6777502" lon="104.6207061"><ele>609</ele><time>2025-12-26T20:58:32.000Z</time></trkpt>
        <trkpt lat="28.6777612" lon="104.6208179"><ele>610.47</ele><time>2025-12-26T20:58:48.000Z</time></trkpt>
        <trkpt lat="28.6777409" lon="104.6209303"><ele>612.5</ele><time>2025-12-26T20:59:02.000Z</time></trkpt>
        <trkpt lat="28.6776618" lon="104.6209873"><ele>614.96</ele><time>2025-12-26T20:59:14.000Z</time></trkpt>
        <trkpt lat="28.6775583" lon="104.6209673"><ele>616.88</ele><time>2025-12-26T20:59:26.000Z</time></trkpt>
        <trkpt lat="28.6774554" lon="104.6209833"><ele>618.54</ele><time>2025-12-26T20:59:38.000Z</time></trkpt>
        <trkpt lat="28.6774554" lon="104.6209833"><ele>618.54</ele><time>2025-12-26T21:00:15.000Z</time></trkpt>
        <trkpt lat="28.6774554" lon="104.6209833"><ele>618.54</ele><time>2025-12-26T21:00:21.000Z</time></trkpt>
        <trkpt lat="28.6774554" lon="104.6209833"><ele>618.54</ele><time>2025-12-26T21:00:35.000Z</time></trkpt>
        <trkpt lat="28.6774626" lon="104.6210802"><ele>620.03</ele><time>2025-12-26T21:00:37.000Z</time></trkpt>
        <trkpt lat="28.6774626" lon="104.6210802"><ele>620.03</ele><time>2025-12-26T21:01:34.000Z</time></trkpt>
        <trkpt lat="28.6775293" lon="104.6211762"><ele>619.6</ele><time>2025-12-26T21:01:48.000Z</time></trkpt>
        <trkpt lat="28.6775845" lon="104.621279"><ele>618.83</ele><time>2025-12-26T21:02:00.000Z</time></trkpt>
        <trkpt lat="28.6776347" lon="104.6213742"><ele>618.66</ele><time>2025-12-26T21:02:10.000Z</time></trkpt>
        <trkpt lat="28.6777092" lon="104.621438"><ele>619.28</ele><time>2025-12-26T21:02:22.000Z</time></trkpt>
        <trkpt lat="28.6777921" lon="104.6214162"><ele>620.6</ele><time>2025-12-26T21:02:42.000Z</time></trkpt>
        <trkpt lat="28.6778879" lon="104.6214094"><ele>621.77</ele><time>2025-12-26T21:02:56.000Z</time></trkpt>
        <trkpt lat="28.6779836" lon="104.621406"><ele>623.28</ele><time>2025-12-26T21:03:08.000Z</time></trkpt>
        <trkpt lat="28.6780803" lon="104.6213826"><ele>624.31</ele><time>2025-12-26T21:03:22.000Z</time></trkpt>
        <trkpt lat="28.6780803" lon="104.6213826"><ele>624.31</ele><time>2025-12-26T21:04:21.000Z</time></trkpt>
        <trkpt lat="28.6780803" lon="104.6213826"><ele>624.31</ele><time>2025-12-26T21:04:39.000Z</time></trkpt>
        <trkpt lat="28.6780803" lon="104.6213826"><ele>624.31</ele><time>2025-12-26T21:04:53.000Z</time></trkpt>
        <trkpt lat="28.6781609" lon="104.6213203"><ele>624.78</ele><time>2025-12-26T21:05:09.000Z</time></trkpt>
        <trkpt lat="28.6781609" lon="104.6213203"><ele>624.78</ele><time>2025-12-26T21:05:38.000Z</time></trkpt>
        <trkpt lat="28.6782528" lon="104.6213633"><ele>623.99</ele><time>2025-12-26T21:06:22.000Z</time></trkpt>
        <trkpt lat="28.6783166" lon="104.6214393"><ele>621.58</ele><time>2025-12-26T21:06:34.000Z</time></trkpt>
        <trkpt lat="28.6783304" lon="104.6215528"><ele>617.1</ele><time>2025-12-26T21:06:44.000Z</time></trkpt>
        <trkpt lat="28.6783405" lon="104.6216679"><ele>613.5</ele><time>2025-12-26T21:06:54.000Z</time></trkpt>
        <trkpt lat="28.6783494" lon="104.6217794"><ele>611.19</ele><time>2025-12-26T21:07:30.000Z</time></trkpt>
        <trkpt lat="28.6783823" lon="104.6218917"><ele>608.43</ele><time>2025-12-26T21:07:38.000Z</time></trkpt>
        <trkpt lat="28.678422" lon="104.622005"><ele>605.8</ele><time>2025-12-26T21:07:46.000Z</time></trkpt>
        <trkpt lat="28.678456" lon="104.6221078"><ele>603.09</ele><time>2025-12-26T21:07:54.000Z</time></trkpt>
        <trkpt lat="28.6784718" lon="104.6222129"><ele>600.64</ele><time>2025-12-26T21:08:04.000Z</time></trkpt>
        <trkpt lat="28.6784742" lon="104.622235"><ele>599.13</ele><time>2025-12-26T21:08:06.000Z</time></trkpt>
        <trkpt lat="28.6785271" lon="104.62231"><ele>598.18</ele><time>2025-12-26T21:08:34.000Z</time></trkpt>
        <trkpt lat="28.6785987" lon="104.6224088"><ele>594.59</ele><time>2025-12-26T21:08:42.000Z</time></trkpt>
        <trkpt lat="28.6786318" lon="104.6225305"><ele>591.52</ele><time>2025-12-26T21:08:50.000Z</time></trkpt>
        <trkpt lat="28.6785997" lon="104.6226528"><ele>588.53</ele><time>2025-12-26T21:08:58.000Z</time></trkpt>
        <trkpt lat="28.6785349" lon="104.6227524"><ele>585.8</ele><time>2025-12-26T21:09:06.000Z</time></trkpt>
        <trkpt lat="28.6784556" lon="104.6228367"><ele>583.41</ele><time>2025-12-26T21:09:14.000Z</time></trkpt>
        <trkpt lat="28.6783813" lon="104.6229142"><ele>581.35</ele><time>2025-12-26T21:09:22.000Z</time></trkpt>
        <trkpt lat="28.6783046" lon="104.6229793"><ele>579.7</ele><time>2025-12-26T21:09:30.000Z</time></trkpt>
        <trkpt lat="28.6782046" lon="104.6230211"><ele>578.21</ele><time>2025-12-26T21:09:40.000Z</time></trkpt>
        <trkpt lat="28.6781056" lon="104.6230405"><ele>576.63</ele><time>2025-12-26T21:09:48.000Z</time></trkpt>
        <trkpt lat="28.6780057" lon="104.6230507"><ele>575.12</ele><time>2025-12-26T21:09:56.000Z</time></trkpt>
        <trkpt lat="28.6779039" lon="104.6230893"><ele>573.68</ele><time>2025-12-26T21:10:06.000Z</time></trkpt>
        <trkpt lat="28.6778314" lon="104.623161"><ele>572.66</ele><time>2025-12-26T21:10:16.000Z</time></trkpt>
        <trkpt lat="28.6777771" lon="104.6232641"><ele>571.27</ele><time>2025-12-26T21:10:26.000Z</time></trkpt>
        <trkpt lat="28.6777474" lon="104.6233729"><ele>569.42</ele><time>2025-12-26T21:10:34.000Z</time></trkpt>
        <trkpt lat="28.6776868" lon="104.6234667"><ele>567.32</ele><time>2025-12-26T21:10:44.000Z</time></trkpt>
        <trkpt lat="28.6776055" lon="104.6235104"><ele>565.36</ele><time>2025-12-26T21:10:52.000Z</time></trkpt>
        <trkpt lat="28.6775095" lon="104.6235338"><ele>563.77</ele><time>2025-12-26T21:11:00.000Z</time></trkpt>
        <trkpt lat="28.677415" lon="104.6235428"><ele>562.35</ele><time>2025-12-26T21:11:08.000Z</time></trkpt>
        <trkpt lat="28.6773057" lon="104.623539"><ele>560.83</ele><time>2025-12-26T21:11:18.000Z</time></trkpt>
        <trkpt lat="28.6773272" lon="104.6235913"><ele>559.43</ele><time>2025-12-26T21:11:28.000Z</time></trkpt>
        <trkpt lat="28.677422" lon="104.6236252"><ele>558.05</ele><time>2025-12-26T21:11:36.000Z</time></trkpt>
        <trkpt lat="28.6775299" lon="104.6236435"><ele>556.86</ele><time>2025-12-26T21:11:44.000Z</time></trkpt>
        <trkpt lat="28.6776344" lon="104.6236528"><ele>555.43</ele><time>2025-12-26T21:11:52.000Z</time></trkpt>
        <trkpt lat="28.6777343" lon="104.623647"><ele>554.02</ele><time>2025-12-26T21:12:00.000Z</time></trkpt>
        <trkpt lat="28.6778296" lon="104.6236132"><ele>553.01</ele><time>2025-12-26T21:12:12.000Z</time></trkpt>
        <trkpt lat="28.6779238" lon="104.6236086"><ele>552.29</ele><time>2025-12-26T21:12:24.000Z</time></trkpt>
        <trkpt lat="28.678023" lon="104.6236109"><ele>551.63</ele><time>2025-12-26T21:12:32.000Z</time></trkpt>
        <trkpt lat="28.678098" lon="104.6236698"><ele>549.48</ele><time>2025-12-26T21:12:46.000Z</time></trkpt>
        <trkpt lat="28.6781419" lon="104.6237729"><ele>546.36</ele><time>2025-12-26T21:13:00.000Z</time></trkpt>
        <trkpt lat="28.6782082" lon="104.6238644"><ele>543.84</ele><time>2025-12-26T21:13:14.000Z</time></trkpt>
        <trkpt lat="28.6782946" lon="104.6239007"><ele>542.12</ele><time>2025-12-26T21:13:30.000Z</time></trkpt>
        <trkpt lat="28.6783856" lon="104.6239344"><ele>540.67</ele><time>2025-12-26T21:13:52.000Z</time></trkpt>
        <trkpt lat="28.6784765" lon="104.6239682"><ele>539.81</ele><time>2025-12-26T21:14:10.000Z</time></trkpt>
        <trkpt lat="28.6785665" lon="104.6239977"><ele>539.29</ele><time>2025-12-26T21:14:24.000Z</time></trkpt>
        <trkpt lat="28.6786612" lon="104.6240291"><ele>538.49</ele><time>2025-12-26T21:14:36.000Z</time></trkpt>
        <trkpt lat="28.6787388" lon="104.6240867"><ele>536.45</ele><time>2025-12-26T21:14:46.000Z</time></trkpt>
        <trkpt lat="28.6788042" lon="104.6241604"><ele>535.07</ele><time>2025-12-26T21:14:58.000Z</time></trkpt>
        <trkpt lat="28.6788841" lon="104.6242227"><ele>533.32</ele><time>2025-12-26T21:15:08.000Z</time></trkpt>
        <trkpt lat="28.6789477" lon="104.6243106"><ele>531.48</ele><time>2025-12-26T21:15:20.000Z</time></trkpt>
        <trkpt lat="28.6790135" lon="104.6244018"><ele>529.58</ele><time>2025-12-26T21:15:34.000Z</time></trkpt>
        <trkpt lat="28.6790984" lon="104.6244369"><ele>529.38</ele><time>2025-12-26T21:15:48.000Z</time></trkpt>
        <trkpt lat="28.6791996" lon="104.6244309"><ele>528.23</ele><time>2025-12-26T21:16:04.000Z</time></trkpt>
        <trkpt lat="28.6792402" lon="104.6243445"><ele>526.67</ele><time>2025-12-26T21:16:32.000Z</time></trkpt>
        <trkpt lat="28.6793123" lon="104.6243157"><ele>523.83</ele><time>2025-12-26T21:16:42.000Z</time></trkpt>
        <trkpt lat="28.6794085" lon="104.6242859"><ele>521.99</ele><time>2025-12-26T21:17:02.000Z</time></trkpt>
        <trkpt lat="28.6795118" lon="104.6242845"><ele>519.12</ele><time>2025-12-26T21:17:14.000Z</time></trkpt>
        <trkpt lat="28.6796121" lon="104.624281"><ele>517.47</ele><time>2025-12-26T21:17:24.000Z</time></trkpt>
        <trkpt lat="28.679715" lon="104.6242765"><ele>516.86</ele><time>2025-12-26T21:17:36.000Z</time></trkpt>
        <trkpt lat="28.6797931" lon="104.6243255"><ele>516.73</ele><time>2025-12-26T21:18:00.000Z</time></trkpt>
        <trkpt lat="28.6798011" lon="104.6244265"><ele>516.07</ele><time>2025-12-26T21:18:26.000Z</time></trkpt>
        <trkpt lat="28.679754" lon="104.6245359"><ele>514.85</ele><time>2025-12-26T21:18:40.000Z</time></trkpt>
        <trkpt lat="28.679692" lon="104.6246423"><ele>514.44</ele><time>2025-12-26T21:18:56.000Z</time></trkpt>
        <trkpt lat="28.6796444" lon="104.6247514"><ele>514.33</ele><time>2025-12-26T21:19:10.000Z</time></trkpt>
        <trkpt lat="28.6796298" lon="104.6248597"><ele>514.24</ele><time>2025-12-26T21:19:22.000Z</time></trkpt>
        <trkpt lat="28.6796738" lon="104.6249448"><ele>513.15</ele><time>2025-12-26T21:19:32.000Z</time></trkpt>
        <trkpt lat="28.6797569" lon="104.6250113"><ele>513.66</ele><time>2025-12-26T21:19:44.000Z</time></trkpt>
        <trkpt lat="28.6798318" lon="104.6250895"><ele>513.94</ele><time>2025-12-26T21:19:56.000Z</time></trkpt>
        <trkpt lat="28.679862" lon="104.6251984"><ele>514.21</ele><time>2025-12-26T21:20:08.000Z</time></trkpt>
        <trkpt lat="28.6798578" lon="104.6253086"><ele>514.8</ele><time>2025-12-26T21:20:18.000Z</time></trkpt>
        <trkpt lat="28.6798218" lon="104.6254175"><ele>516.13</ele><time>2025-12-26T21:20:32.000Z</time></trkpt>
        <trkpt lat="28.6798645" lon="104.6254947"><ele>517.58</ele><time>2025-12-26T21:20:48.000Z</time></trkpt>
        <trkpt lat="28.6799342" lon="104.6255645"><ele>519.3</ele><time>2025-12-26T21:21:06.000Z</time></trkpt>
        <trkpt lat="28.6800277" lon="104.6256139"><ele>522.03</ele><time>2025-12-26T21:21:22.000Z</time></trkpt>
        <trkpt lat="28.6800848" lon="104.6256979"><ele>524.4</ele><time>2025-12-26T21:21:32.000Z</time></trkpt>
        <trkpt lat="28.6801272" lon="104.6258104"><ele>525.32</ele><time>2025-12-26T21:21:42.000Z</time></trkpt>
        <trkpt lat="28.680174" lon="104.6259205"><ele>525.35</ele><time>2025-12-26T21:21:52.000Z</time></trkpt>
        <trkpt lat="28.6802275" lon="104.6260105"><ele>526.12</ele><time>2025-12-26T21:22:02.000Z</time></trkpt>
        <trkpt lat="28.6802913" lon="104.6260878"><ele>527.99</ele><time>2025-12-26T21:22:14.000Z</time></trkpt>
        <trkpt lat="28.6803264" lon="104.6261829"><ele>529.43</ele><time>2025-12-26T21:22:24.000Z</time></trkpt>
        <trkpt lat="28.6803245" lon="104.6262928"><ele>530.74</ele><time>2025-12-26T21:22:56.000Z</time></trkpt>
        <trkpt lat="28.6803006" lon="104.6264029"><ele>534.51</ele><time>2025-12-26T21:23:14.000Z</time></trkpt>
        <trkpt lat="28.6803113" lon="104.6265079"><ele>537.93</ele><time>2025-12-26T21:23:28.000Z</time></trkpt>
        <trkpt lat="28.6803438" lon="104.6266126"><ele>540.24</ele><time>2025-12-26T21:23:46.000Z</time></trkpt>
        <trkpt lat="28.680378" lon="104.6267246"><ele>542.72</ele><time>2025-12-26T21:23:58.000Z</time></trkpt>
        <trkpt lat="28.6803672" lon="104.626829"><ele>544.16</ele><time>2025-12-26T21:24:08.000Z</time></trkpt>
        <trkpt lat="28.6803664" lon="104.6269395"><ele>545.62</ele><time>2025-12-26T21:24:24.000Z</time></trkpt>
        <trkpt lat="28.6803819" lon="104.6270503"><ele>545.77</ele><time>2025-12-26T21:24:36.000Z</time></trkpt>
        <trkpt lat="28.6804203" lon="104.6271608"><ele>545.33</ele><time>2025-12-26T21:24:46.000Z</time></trkpt>
        <trkpt lat="28.6804574" lon="104.6272672"><ele>545.63</ele><time>2025-12-26T21:24:54.000Z</time></trkpt>
        <trkpt lat="28.6805038" lon="104.6273689"><ele>546.18</ele><time>2025-12-26T21:25:02.000Z</time></trkpt>
        <trkpt lat="28.680521" lon="104.6274842"><ele>548.03</ele><time>2025-12-26T21:25:12.000Z</time></trkpt>
        <trkpt lat="28.680542" lon="104.6275904"><ele>550.62</ele><time>2025-12-26T21:25:24.000Z</time></trkpt>
        <trkpt lat="28.6805413" lon="104.6277015"><ele>552.37</ele><time>2025-12-26T21:25:36.000Z</time></trkpt>
        <trkpt lat="28.6804866" lon="104.6277805"><ele>553.05</ele><time>2025-12-26T21:25:50.000Z</time></trkpt>
        <trkpt lat="28.680416" lon="104.627852"><ele>553.71</ele><time>2025-12-26T21:26:08.000Z</time></trkpt>
        <trkpt lat="28.680334" lon="104.6279254"><ele>553.45</ele><time>2025-12-26T21:26:20.000Z</time></trkpt>
        <trkpt lat="28.6802638" lon="104.628002"><ele>554.3</ele><time>2025-12-26T21:26:30.000Z</time></trkpt>
        <trkpt lat="28.6802463" lon="104.628104"><ele>554.77</ele><time>2025-12-26T21:26:42.000Z</time></trkpt>
        <trkpt lat="28.6803012" lon="104.6281813"><ele>554.56</ele><time>2025-12-26T21:26:54.000Z</time></trkpt>
        <trkpt lat="28.6803851" lon="104.6282535"><ele>554.71</ele><time>2025-12-26T21:27:06.000Z</time></trkpt>
        <trkpt lat="28.6804347" lon="104.6283529"><ele>555.07</ele><time>2025-12-26T21:27:32.000Z</time></trkpt>
        <trkpt lat="28.6804347" lon="104.6283529"><ele>555.07</ele><time>2025-12-26T21:27:55.000Z</time></trkpt>
        <trkpt lat="28.6804998" lon="104.6283278"><ele>556.08</ele><time>2025-12-26T21:28:05.000Z</time></trkpt>
        <trkpt lat="28.6804998" lon="104.6283278"><ele>556.08</ele><time>2025-12-26T21:28:26.000Z</time></trkpt>
        <trkpt lat="28.6805502" lon="104.6282398"><ele>554.59</ele><time>2025-12-26T21:28:58.000Z</time></trkpt>
        <trkpt lat="28.6806324" lon="104.6281978"><ele>553.36</ele><time>2025-12-26T21:29:24.000Z</time></trkpt>
        <trkpt lat="28.6806324" lon="104.6281978"><ele>553.36</ele><time>2025-12-26T21:29:39.000Z</time></trkpt>
        <trkpt lat="28.6806324" lon="104.6281978"><ele>553.36</ele><time>2025-12-26T21:29:41.000Z</time></trkpt>
        <trkpt lat="28.6806324" lon="104.6281978"><ele>553.36</ele><time>2025-12-26T21:29:55.000Z</time></trkpt>
        <trkpt lat="28.6807239" lon="104.6281827"><ele>549.89</ele><time>2025-12-26T21:29:57.000Z</time></trkpt>
        <trkpt lat="28.6807239" lon="104.6281827"><ele>549.89</ele><time>2025-12-26T21:30:10.000Z</time></trkpt>
        <trkpt lat="28.6808187" lon="104.628198"><ele>545.53</ele><time>2025-12-26T21:30:30.000Z</time></trkpt>
        <trkpt lat="28.6808756" lon="104.6281314"><ele>542.28</ele><time>2025-12-26T21:30:50.000Z</time></trkpt>
        <trkpt lat="28.6809366" lon="104.6280532"><ele>538.37</ele><time>2025-12-26T21:31:00.000Z</time></trkpt>
        <trkpt lat="28.6809644" lon="104.6279472"><ele>536.24</ele><time>2025-12-26T21:31:10.000Z</time></trkpt>
        <trkpt lat="28.6810359" lon="104.627913"><ele>534.47</ele><time>2025-12-26T21:31:30.000Z</time></trkpt>
        <trkpt lat="28.681122" lon="104.6278747"><ele>533.91</ele><time>2025-12-26T21:32:04.000Z</time></trkpt>
        <trkpt lat="28.6812091" lon="104.6278354"><ele>531.08</ele><time>2025-12-26T21:32:34.000Z</time></trkpt>
        <trkpt lat="28.6812872" lon="104.6278863"><ele>527</ele><time>2025-12-26T21:32:56.000Z</time></trkpt>
        <trkpt lat="28.6813617" lon="104.6278511"><ele>523.28</ele><time>2025-12-26T21:33:10.000Z</time></trkpt>
        <trkpt lat="28.681449" lon="104.6278002"><ele>520.53</ele><time>2025-12-26T21:33:36.000Z</time></trkpt>
        <trkpt lat="28.6815291" lon="104.6277249"><ele>515.51</ele><time>2025-12-26T21:34:02.000Z</time></trkpt>
        <trkpt lat="28.6815629" lon="104.6276204"><ele>509.03</ele><time>2025-12-26T21:34:12.000Z</time></trkpt>
        <trkpt lat="28.6815739" lon="104.6275488"><ele>503.78</ele><time>2025-12-26T21:34:28.000Z</time></trkpt>
        <trkpt lat="28.6816255" lon="104.627485"><ele>498.85</ele><time>2025-12-26T21:34:42.000Z</time></trkpt>
        <trkpt lat="28.68165" lon="104.6274711"><ele>495.94</ele><time>2025-12-26T21:34:48.000Z</time></trkpt>
        <trkpt lat="28.6817126" lon="104.6275256"><ele>493.77</ele><time>2025-12-26T21:35:14.000Z</time></trkpt>
        <trkpt lat="28.6817489" lon="104.6275317"><ele>491.68</ele><time>2025-12-26T21:35:18.000Z</time></trkpt>
        <trkpt lat="28.6818245" lon="104.6275102"><ele>490.49</ele><time>2025-12-26T21:35:46.000Z</time></trkpt>
        <trkpt lat="28.6819116" lon="104.6274733"><ele>488.48</ele><time>2025-12-26T21:36:06.000Z</time></trkpt>
        <trkpt lat="28.6819909" lon="104.6275127"><ele>486.01</ele><time>2025-12-26T21:36:36.000Z</time></trkpt>
        <trkpt lat="28.6820796" lon="104.6275237"><ele>483.43</ele><time>2025-12-26T21:36:50.000Z</time></trkpt>
        <trkpt lat="28.6821227" lon="104.6275097"><ele>480.29</ele><time>2025-12-26T21:36:58.000Z</time></trkpt>
        <trkpt lat="28.6821934" lon="104.6274767"><ele>477.74</ele><time>2025-12-26T21:37:26.000Z</time></trkpt>
        <trkpt lat="28.6822754" lon="104.6274262"><ele>474.56</ele><time>2025-12-26T21:37:46.000Z</time></trkpt>
        <trkpt lat="28.6822523" lon="104.6274827"><ele>469.36</ele><time>2025-12-26T21:38:12.000Z</time></trkpt>
        <trkpt lat="28.6822838" lon="104.627571"><ele>464.98</ele><time>2025-12-26T21:38:26.000Z</time></trkpt>
        <trkpt lat="28.6822904" lon="104.6276829"><ele>461.86</ele><time>2025-12-26T21:38:36.000Z</time></trkpt>
        <trkpt lat="28.6823579" lon="104.627756"><ele>459.21</ele><time>2025-12-26T21:38:52.000Z</time></trkpt>
        <trkpt lat="28.6824502" lon="104.6277754"><ele>457.14</ele><time>2025-12-26T21:39:00.000Z</time></trkpt>
        <trkpt lat="28.6825228" lon="104.6277141"><ele>456.33</ele><time>2025-12-26T21:39:14.000Z</time></trkpt>
        <trkpt lat="28.6826024" lon="104.6276306"><ele>454.2</ele><time>2025-12-26T21:39:22.000Z</time></trkpt>
        <trkpt lat="28.6826923" lon="104.6275701"><ele>453</ele><time>2025-12-26T21:39:30.000Z</time></trkpt>
        <trkpt lat="28.6827489" lon="104.6274815"><ele>452.92</ele><time>2025-12-26T21:39:40.000Z</time></trkpt>
        <trkpt lat="28.6827665" lon="104.6273764"><ele>452.89</ele><time>2025-12-26T21:39:52.000Z</time></trkpt>
        <trkpt lat="28.6827848" lon="104.6272636"><ele>452.19</ele><time>2025-12-26T21:40:02.000Z</time></trkpt>
        <trkpt lat="28.6827779" lon="104.627149"><ele>452.86</ele><time>2025-12-26T21:40:12.000Z</time></trkpt>
        <trkpt lat="28.682818" lon="104.6270486"><ele>455.21</ele><time>2025-12-26T21:40:24.000Z</time></trkpt>
        <trkpt lat="28.6828819" lon="104.6269724"><ele>454.93</ele><time>2025-12-26T21:40:36.000Z</time></trkpt>
        <trkpt lat="28.6829842" lon="104.6269635"><ele>454.87</ele><time>2025-12-26T21:40:48.000Z</time></trkpt>
        <trkpt lat="28.6830923" lon="104.626961"><ele>453.68</ele><time>2025-12-26T21:40:58.000Z</time></trkpt>
        <trkpt lat="28.6831874" lon="104.6269217"><ele>452.94</ele><time>2025-12-26T21:41:10.000Z</time></trkpt>
        <trkpt lat="28.683279" lon="104.6268829"><ele>451.52</ele><time>2025-12-26T21:41:20.000Z</time></trkpt>
        <trkpt lat="28.6832972" lon="104.6268761"><ele>450.48</ele><time>2025-12-26T21:41:22.000Z</time></trkpt>
        <trkpt lat="28.6833648" lon="104.6268563"><ele>449.33</ele><time>2025-12-26T21:41:36.000Z</time></trkpt>
        <trkpt lat="28.6833954" lon="104.6268437"><ele>450.1</ele><time>2025-12-26T21:41:40.000Z</time></trkpt>
        <trkpt lat="28.6834711" lon="104.6268545"><ele>450.14</ele><time>2025-12-26T21:41:52.000Z</time></trkpt>
        <trkpt lat="28.6835686" lon="104.6268487"><ele>448.72</ele><time>2025-12-26T21:42:04.000Z</time></trkpt>
        <trkpt lat="28.683666" lon="104.6268486"><ele>446.2</ele><time>2025-12-26T21:42:16.000Z</time></trkpt>
        <trkpt lat="28.6836734" lon="104.6269332"><ele>444.29</ele><time>2025-12-26T21:42:26.000Z</time></trkpt>
        <trkpt lat="28.6836444" lon="104.6270443"><ele>438.6</ele><time>2025-12-26T21:42:40.000Z</time></trkpt>
        <trkpt lat="28.6837049" lon="104.6270713"><ele>432.32</ele><time>2025-12-26T21:42:52.000Z</time></trkpt>
        <trkpt lat="28.6837573" lon="104.6270001"><ele>429.93</ele><time>2025-12-26T21:43:02.000Z</time></trkpt>
        <trkpt lat="28.6837954" lon="104.6268954"><ele>428.35</ele><time>2025-12-26T21:43:14.000Z</time></trkpt>
        <trkpt lat="28.6838075" lon="104.6267751"><ele>426.19</ele><time>2025-12-26T21:43:24.000Z</time></trkpt>
        <trkpt lat="28.6838267" lon="104.6266479"><ele>423.9</ele><time>2025-12-26T21:43:34.000Z</time></trkpt>
        <trkpt lat="28.6838051" lon="104.6265709"><ele>422.39</ele><time>2025-12-26T21:43:44.000Z</time></trkpt>
        <trkpt lat="28.6837229" lon="104.6265698"><ele>421.28</ele><time>2025-12-26T21:43:58.000Z</time></trkpt>
        <trkpt lat="28.6836375" lon="104.6265347"><ele>421.3</ele><time>2025-12-26T21:44:12.000Z</time></trkpt>
        <trkpt lat="28.6836136" lon="104.6264445"><ele>422.57</ele><time>2025-12-26T21:44:46.000Z</time></trkpt>
        <trkpt lat="28.6835398" lon="104.6263753"><ele>420.21</ele><time>2025-12-26T21:44:56.000Z</time></trkpt>
        <trkpt lat="28.6835475" lon="104.6263721"><ele>417.29</ele><time>2025-12-26T21:44:58.000Z</time></trkpt>
        <trkpt lat="28.6835475" lon="104.6263721"><ele>417.29</ele><time>2025-12-26T21:46:37.000Z</time></trkpt>
        <trkpt lat="28.6835475" lon="104.6263721"><ele>417.29</ele><time>2025-12-26T21:46:45.000Z</time></trkpt>
        <trkpt lat="28.6835475" lon="104.6263721"><ele>417.29</ele><time>2025-12-26T21:47:01.000Z</time></trkpt>
        <trkpt lat="28.6835475" lon="104.6263721"><ele>417.29</ele><time>2025-12-26T21:47:13.000Z</time></trkpt>
        <trkpt lat="28.6835475" lon="104.6263721"><ele>417.29</ele><time>2025-12-26T21:47:29.000Z</time></trkpt>
        <trkpt lat="28.6834744" lon="104.6263948"><ele>411.91</ele><time>2025-12-26T21:47:55.000Z</time></trkpt>
        <trkpt lat="28.6834744" lon="104.6263948"><ele>411.91</ele><time>2025-12-26T21:48:04.000Z</time></trkpt>
        <trkpt lat="28.6834744" lon="104.6263948"><ele>411.91</ele><time>2025-12-26T21:48:43.000Z</time></trkpt>
        <trkpt lat="28.6833929" lon="104.626348"><ele>411.18</ele><time>2025-12-26T21:49:15.000Z</time></trkpt>
        <trkpt lat="28.6833929" lon="104.626348"><ele>411.18</ele><time>2025-12-26T21:49:20.000Z</time></trkpt>
        <trkpt lat="28.6833929" lon="104.626348"><ele>411.18</ele><time>2025-12-26T21:49:47.000Z</time></trkpt>
        <trkpt lat="28.6833929" lon="104.626348"><ele>411.18</ele><time>2025-12-26T21:49:49.000Z</time></trkpt>
        <trkpt lat="28.6833929" lon="104.626348"><ele>411.18</ele><time>2025-12-26T21:50:05.000Z</time></trkpt>
        <trkpt lat="28.6833929" lon="104.626348"><ele>411.18</ele><time>2025-12-26T21:50:07.000Z</time></trkpt>
        <trkpt lat="28.6833929" lon="104.626348"><ele>411.18</ele><time>2025-12-26T21:50:23.000Z</time></trkpt>
        <trkpt lat="28.6833553" lon="104.6262498"><ele>409.93</ele><time>2025-12-26T21:50:43.000Z</time></trkpt>
        <trkpt lat="28.6833553" lon="104.6262498"><ele>409.93</ele><time>2025-12-26T21:51:10.000Z</time></trkpt>
        <trkpt lat="28.6832713" lon="104.6261959"><ele>409.32</ele><time>2025-12-26T21:51:50.000Z</time></trkpt>
        <trkpt lat="28.6832713" lon="104.6261959"><ele>409.32</ele><time>2025-12-26T21:52:11.000Z</time></trkpt>
        <trkpt lat="28.6832268" lon="104.6261074"><ele>407.03</ele><time>2025-12-26T21:52:15.000Z</time></trkpt>
        <trkpt lat="28.6832268" lon="104.6261074"><ele>407.03</ele><time>2025-12-26T21:52:32.000Z</time></trkpt>
        <trkpt lat="28.6832178" lon="104.6260728"><ele>404.32</ele><time>2025-12-26T21:52:38.000Z</time></trkpt>
        <trkpt lat="28.6832178" lon="104.6260728"><ele>404.32</ele><time>2025-12-26T21:52:51.000Z</time></trkpt>
        <trkpt lat="28.6832178" lon="104.6260728"><ele>404.32</ele><time>2025-12-26T21:53:01.000Z</time></trkpt>
        <trkpt lat="28.6832178" lon="104.6260728"><ele>404.32</ele><time>2025-12-26T21:53:15.000Z</time></trkpt>
        <trkpt lat="28.6832513" lon="104.625973"><ele>402.46</ele><time>2025-12-26T21:53:43.000Z</time></trkpt>
        <trkpt lat="28.6832513" lon="104.625973"><ele>402.46</ele><time>2025-12-26T21:54:04.000Z</time></trkpt>
        <trkpt lat="28.6833228" lon="104.6258984"><ele>401.35</ele><time>2025-12-26T21:54:20.000Z</time></trkpt>
        <trkpt lat="28.6833228" lon="104.6258984"><ele>401.35</ele><time>2025-12-26T21:54:43.000Z</time></trkpt>
        <trkpt lat="28.6833228" lon="104.6258984"><ele>401.35</ele><time>2025-12-26T21:54:51.000Z</time></trkpt>
        <trkpt lat="28.6833228" lon="104.6258984"><ele>401.35</ele><time>2025-12-26T21:55:07.000Z</time></trkpt>
        <trkpt lat="28.6833953" lon="104.6258157"><ele>398.93</ele><time>2025-12-26T21:55:31.000Z</time></trkpt>
        <trkpt lat="28.6833953" lon="104.6258157"><ele>398.93</ele><time>2025-12-26T21:55:32.000Z</time></trkpt>
        <trkpt lat="28.6834046" lon="104.6258136"><ele>397.5</ele><time>2025-12-26T21:55:34.000Z</time></trkpt>
        <trkpt lat="28.6834046" lon="104.6258136"><ele>397.5</ele><time>2025-12-26T21:56:11.000Z</time></trkpt>
        <trkpt lat="28.6834046" lon="104.6258136"><ele>397.5</ele><time>2025-12-26T21:56:27.000Z</time></trkpt>
        <trkpt lat="28.6834046" lon="104.6258136"><ele>397.5</ele><time>2025-12-26T21:57:09.000Z</time></trkpt>
        <trkpt lat="28.6832983" lon="104.6258086"><ele>396.42</ele><time>2025-12-26T21:57:21.000Z</time></trkpt>
        <trkpt lat="28.6832983" lon="104.6258086"><ele>396.42</ele><time>2025-12-26T21:57:30.000Z</time></trkpt>
        <trkpt lat="28.6833352" lon="104.6257011"><ele>393.63</ele><time>2025-12-26T21:57:46.000Z</time></trkpt>
        <trkpt lat="28.6833461" lon="104.6255936"><ele>391.25</ele><time>2025-12-26T21:57:56.000Z</time></trkpt>
        <trkpt lat="28.6833615" lon="104.6254882"><ele>388.82</ele><time>2025-12-26T21:58:10.000Z</time></trkpt>
        <trkpt lat="28.6833858" lon="104.6253771"><ele>384.37</ele><time>2025-12-26T21:58:22.000Z</time></trkpt>
        <trkpt lat="28.6834559" lon="104.6253192"><ele>380.36</ele><time>2025-12-26T21:58:30.000Z</time></trkpt>
        <trkpt lat="28.6835257" lon="104.6252437"><ele>379.86</ele><time>2025-12-26T21:58:40.000Z</time></trkpt>
        <trkpt lat="28.6835571" lon="104.6251352"><ele>380.32</ele><time>2025-12-26T21:58:52.000Z</time></trkpt>
        <trkpt lat="28.6836166" lon="104.6250508"><ele>379.14</ele><time>2025-12-26T21:59:04.000Z</time></trkpt>
        <trkpt lat="28.6836951" lon="104.6249964"><ele>380.92</ele><time>2025-12-26T21:59:16.000Z</time></trkpt>
        <trkpt lat="28.6837718" lon="104.6249251"><ele>380.19</ele><time>2025-12-26T21:59:30.000Z</time></trkpt>
        <trkpt lat="28.6838194" lon="104.6248283"><ele>379.07</ele><time>2025-12-26T21:59:46.000Z</time></trkpt>
        <trkpt lat="28.6838301" lon="104.6247393"><ele>377.49</ele><time>2025-12-26T22:00:04.000Z</time></trkpt>
        <trkpt lat="28.6838301" lon="104.6247393"><ele>377.49</ele><time>2025-12-26T22:00:15.000Z</time></trkpt>
        <trkpt lat="28.683786" lon="104.6247779"><ele>375.85</ele><time>2025-12-26T22:00:19.000Z</time></trkpt>
        <trkpt lat="28.683786" lon="104.6247779"><ele>375.85</ele><time>2025-12-26T22:00:30.000Z</time></trkpt>
        <trkpt lat="28.683701" lon="104.6248377"><ele>374.35</ele><time>2025-12-26T22:00:42.000Z</time></trkpt>
        <trkpt lat="28.6836801" lon="104.6247787"><ele>372.6</ele><time>2025-12-26T22:01:04.000Z</time></trkpt>
        <trkpt lat="28.6837263" lon="104.6246822"><ele>370</ele><time>2025-12-26T22:01:16.000Z</time></trkpt>
        <trkpt lat="28.683799" lon="104.6245774"><ele>367.62</ele><time>2025-12-26T22:01:26.000Z</time></trkpt>
        <trkpt lat="28.6838825" lon="104.6244781"><ele>366.14</ele><time>2025-12-26T22:01:36.000Z</time></trkpt>
        <trkpt lat="28.683951" lon="104.6243705"><ele>365.34</ele><time>2025-12-26T22:01:46.000Z</time></trkpt>
        <trkpt lat="28.6839957" lon="104.6242602"><ele>365.01</ele><time>2025-12-26T22:01:56.000Z</time></trkpt>
        <trkpt lat="28.6840121" lon="104.6241529"><ele>364.91</ele><time>2025-12-26T22:02:04.000Z</time></trkpt>
        <trkpt lat="28.6840151" lon="104.624031"><ele>365.06</ele><time>2025-12-26T22:02:14.000Z</time></trkpt>
        <trkpt lat="28.6840145" lon="104.623919"><ele>365.06</ele><time>2025-12-26T22:02:22.000Z</time></trkpt>
        <trkpt lat="28.6840779" lon="104.6238345"><ele>364.77</ele><time>2025-12-26T22:02:32.000Z</time></trkpt>
        <trkpt lat="28.6841734" lon="104.623817"><ele>365.09</ele><time>2025-12-26T22:02:42.000Z</time></trkpt>
        <trkpt lat="28.6842805" lon="104.6238522"><ele>365.8</ele><time>2025-12-26T22:02:52.000Z</time></trkpt>
        <trkpt lat="28.6843833" lon="104.6238723"><ele>366.98</ele><time>2025-12-26T22:03:00.000Z</time></trkpt>
        <trkpt lat="28.6844703" lon="104.6238443"><ele>369.41</ele><time>2025-12-26T22:03:08.000Z</time></trkpt>
        <trkpt lat="28.684522" lon="104.623762"><ele>370.6</ele><time>2025-12-26T22:03:16.000Z</time></trkpt>
        <trkpt lat="28.6845683" lon="104.6236656"><ele>370.96</ele><time>2025-12-26T22:03:24.000Z</time></trkpt>
        <trkpt lat="28.6846374" lon="104.6235699"><ele>371.17</ele><time>2025-12-26T22:03:34.000Z</time></trkpt>
        <trkpt lat="28.6847174" lon="104.6235058"><ele>370.9</ele><time>2025-12-26T22:03:42.000Z</time></trkpt>
        <trkpt lat="28.6848089" lon="104.62349"><ele>370.9</ele><time>2025-12-26T22:03:50.000Z</time></trkpt>
        <trkpt lat="28.6848943" lon="104.6235495"><ele>371.72</ele><time>2025-12-26T22:04:00.000Z</time></trkpt>
        <trkpt lat="28.6849255" lon="104.6236649"><ele>372.04</ele><time>2025-12-26T22:04:10.000Z</time></trkpt>
        <trkpt lat="28.6849117" lon="104.623788"><ele>371.67</ele><time>2025-12-26T22:04:20.000Z</time></trkpt>
        <trkpt lat="28.6849029" lon="104.6239188"><ele>369.65</ele><time>2025-12-26T22:04:30.000Z</time></trkpt>
        <trkpt lat="28.6849293" lon="104.6240335"><ele>369.68</ele><time>2025-12-26T22:04:42.000Z</time></trkpt>
        <trkpt lat="28.6849228" lon="104.6241405"><ele>370.81</ele><time>2025-12-26T22:04:52.000Z</time></trkpt>
        <trkpt lat="28.6848977" lon="104.6242502"><ele>371.99</ele><time>2025-12-26T22:05:02.000Z</time></trkpt>
        <trkpt lat="28.6848697" lon="104.6243698"><ele>372.29</ele><time>2025-12-26T22:05:12.000Z</time></trkpt>
        <trkpt lat="28.6848711" lon="104.6244775"><ele>373.1</ele><time>2025-12-26T22:05:20.000Z</time></trkpt>
        <trkpt lat="28.6848688" lon="104.6245845"><ele>374.18</ele><time>2025-12-26T22:05:28.000Z</time></trkpt>
        <trkpt lat="28.6848415" lon="104.6246897"><ele>374.66</ele><time>2025-12-26T22:05:38.000Z</time></trkpt>
        <trkpt lat="28.6848304" lon="104.6247967"><ele>374.57</ele><time>2025-12-26T22:05:46.000Z</time></trkpt>
        <trkpt lat="28.6848532" lon="104.6248961"><ele>374.19</ele><time>2025-12-26T22:05:54.000Z</time></trkpt>
        <trkpt lat="28.6849232" lon="104.6249714"><ele>373.29</ele><time>2025-12-26T22:06:02.000Z</time></trkpt>
        <trkpt lat="28.6850201" lon="104.6250071"><ele>372.55</ele><time>2025-12-26T22:06:10.000Z</time></trkpt>
        <trkpt lat="28.6851165" lon="104.6249773"><ele>372.35</ele><time>2025-12-26T22:06:18.000Z</time></trkpt>
        <trkpt lat="28.6851828" lon="104.6248939"><ele>371.22</ele><time>2025-12-26T22:06:26.000Z</time></trkpt>
        <trkpt lat="28.6852188" lon="104.6247872"><ele>369.62</ele><time>2025-12-26T22:06:34.000Z</time></trkpt>
        <trkpt lat="28.6852348" lon="104.6247057"><ele>368.37</ele><time>2025-12-26T22:06:40.000Z</time></trkpt>
        <trkpt lat="28.685237" lon="104.6246048"><ele>367.86</ele><time>2025-12-26T22:06:48.000Z</time></trkpt>
        <trkpt lat="28.6852554" lon="104.6244921"><ele>368.12</ele><time>2025-12-26T22:06:58.000Z</time></trkpt>
        <trkpt lat="28.6853185" lon="104.6244212"><ele>369.16</ele><time>2025-12-26T22:07:08.000Z</time></trkpt>
        <trkpt lat="28.6854056" lon="104.6244327"><ele>369.51</ele><time>2025-12-26T22:07:18.000Z</time></trkpt>
        <trkpt lat="28.6854904" lon="104.6245133"><ele>369.79</ele><time>2025-12-26T22:07:30.000Z</time></trkpt>
        <trkpt lat="28.6855911" lon="104.6245693"><ele>370.11</ele><time>2025-12-26T22:07:40.000Z</time></trkpt>
        <trkpt lat="28.6856858" lon="104.624542"><ele>370.33</ele><time>2025-12-26T22:07:52.000Z</time></trkpt>
        <trkpt lat="28.6857477" lon="104.6244493"><ele>370.93</ele><time>2025-12-26T22:08:02.000Z</time></trkpt>
        <trkpt lat="28.6857775" lon="104.6243309"><ele>371.86</ele><time>2025-12-26T22:08:12.000Z</time></trkpt>
        <trkpt lat="28.6857877" lon="104.6242029"><ele>372.76</ele><time>2025-12-26T22:08:22.000Z</time></trkpt>
        <trkpt lat="28.6857738" lon="104.6240856"><ele>372.97</ele><time>2025-12-26T22:08:30.000Z</time></trkpt>
        <trkpt lat="28.6857683" lon="104.6239695"><ele>373.2</ele><time>2025-12-26T22:08:42.000Z</time></trkpt>
        <trkpt lat="28.6857485" lon="104.6238581"><ele>373.23</ele><time>2025-12-26T22:08:52.000Z</time></trkpt>
        <trkpt lat="28.6857942" lon="104.6237771"><ele>373.12</ele><time>2025-12-26T22:09:02.000Z</time></trkpt>
        <trkpt lat="28.685884" lon="104.6237431"><ele>373.34</ele><time>2025-12-26T22:09:14.000Z</time></trkpt>
        <trkpt lat="28.6859904" lon="104.623713"><ele>373.55</ele><time>2025-12-26T22:09:26.000Z</time></trkpt>
        <trkpt lat="28.6860992" lon="104.6237129"><ele>373.99</ele><time>2025-12-26T22:09:36.000Z</time></trkpt>
        <trkpt lat="28.6861965" lon="104.623738"><ele>375.25</ele><time>2025-12-26T22:09:52.000Z</time></trkpt>
        <trkpt lat="28.6861965" lon="104.623738"><ele>375.25</ele><time>2025-12-26T22:10:43.000Z</time></trkpt>
        <trkpt lat="28.6862628" lon="104.6238421"><ele>375.78</ele><time>2025-12-26T22:11:07.000Z</time></trkpt>
        <trkpt lat="28.6862628" lon="104.6238421"><ele>375.78</ele><time>2025-12-26T22:11:10.000Z</time></trkpt>
        <trkpt lat="28.6863267" lon="104.6239269"><ele>373.86</ele><time>2025-12-26T22:11:22.000Z</time></trkpt>
        <trkpt lat="28.6863018" lon="104.6239442"><ele>371.67</ele><time>2025-12-26T22:11:26.000Z</time></trkpt>
        <trkpt lat="28.686365" lon="104.62397"><ele>370.27</ele><time>2025-12-26T22:11:44.000Z</time></trkpt>
        <trkpt lat="28.686365" lon="104.62397"><ele>370.27</ele><time>2025-12-26T22:12:13.000Z</time></trkpt>
        <trkpt lat="28.6863756" lon="104.6240569"><ele>369.1</ele><time>2025-12-26T22:12:17.000Z</time></trkpt>
        <trkpt lat="28.6863756" lon="104.6240569"><ele>369.1</ele><time>2025-12-26T22:12:18.000Z</time></trkpt>
        <trkpt lat="28.6863723" lon="104.6241639"><ele>367.93</ele><time>2025-12-26T22:12:28.000Z</time></trkpt>
        <trkpt lat="28.6863601" lon="104.6242767"><ele>367.93</ele><time>2025-12-26T22:12:38.000Z</time></trkpt>
        <trkpt lat="28.686327" lon="104.624388"><ele>369.12</ele><time>2025-12-26T22:12:48.000Z</time></trkpt>
        <trkpt lat="28.6862951" lon="104.6245043"><ele>369.02</ele><time>2025-12-26T22:12:58.000Z</time></trkpt>
        <trkpt lat="28.6862883" lon="104.6246299"><ele>368.31</ele><time>2025-12-26T22:13:08.000Z</time></trkpt>
        <trkpt lat="28.6863029" lon="104.6247551"><ele>367.96</ele><time>2025-12-26T22:13:18.000Z</time></trkpt>
        <trkpt lat="28.686323" lon="104.6248777"><ele>366.94</ele><time>2025-12-26T22:13:26.000Z</time></trkpt>
        <trkpt lat="28.6863269" lon="104.6249881"><ele>367.4</ele><time>2025-12-26T22:13:34.000Z</time></trkpt>
        <trkpt lat="28.6863184" lon="104.6250961"><ele>368.77</ele><time>2025-12-26T22:13:44.000Z</time></trkpt>
        <trkpt lat="28.686283" lon="104.6252042"><ele>369.52</ele><time>2025-12-26T22:13:54.000Z</time></trkpt>
        <trkpt lat="28.6862541" lon="104.6253187"><ele>370.8</ele><time>2025-12-26T22:14:04.000Z</time></trkpt>
        <trkpt lat="28.6862544" lon="104.6254397"><ele>371.15</ele><time>2025-12-26T22:14:12.000Z</time></trkpt>
        <trkpt lat="28.6862715" lon="104.625552"><ele>370.39</ele><time>2025-12-26T22:14:20.000Z</time></trkpt>
        <trkpt lat="28.686332" lon="104.6256435"><ele>370.55</ele><time>2025-12-26T22:14:28.000Z</time></trkpt>
        <trkpt lat="28.6864346" lon="104.6256606"><ele>368.81</ele><time>2025-12-26T22:14:38.000Z</time></trkpt>
        <trkpt lat="28.6865492" lon="104.6256398"><ele>368.05</ele><time>2025-12-26T22:14:48.000Z</time></trkpt>
        <trkpt lat="28.6866533" lon="104.625609"><ele>367.09</ele><time>2025-12-26T22:14:56.000Z</time></trkpt>
        <trkpt lat="28.6867487" lon="104.6255382"><ele>367.17</ele><time>2025-12-26T22:15:06.000Z</time></trkpt>
        <trkpt lat="28.6867849" lon="104.6254299"><ele>366.71</ele><time>2025-12-26T22:15:14.000Z</time></trkpt>
        <trkpt lat="28.6867879" lon="104.625306"><ele>365.93</ele><time>2025-12-26T22:15:22.000Z</time></trkpt>
        <trkpt lat="28.6868087" lon="104.625195"><ele>365.55</ele><time>2025-12-26T22:15:30.000Z</time></trkpt>
        <trkpt lat="28.6868516" lon="104.6251024"><ele>365.01</ele><time>2025-12-26T22:15:38.000Z</time></trkpt>
        <trkpt lat="28.6869167" lon="104.6250292"><ele>364.6</ele><time>2025-12-26T22:15:46.000Z</time></trkpt>
        <trkpt lat="28.6870048" lon="104.624956"><ele>364.69</ele><time>2025-12-26T22:15:56.000Z</time></trkpt>
        <trkpt lat="28.6870827" lon="104.6248849"><ele>365.35</ele><time>2025-12-26T22:16:04.000Z</time></trkpt>
        <trkpt lat="28.687145" lon="104.6247888"><ele>366.19</ele><time>2025-12-26T22:16:14.000Z</time></trkpt>
        <trkpt lat="28.6871662" lon="104.6246817"><ele>366.59</ele><time>2025-12-26T22:16:22.000Z</time></trkpt>
        <trkpt lat="28.6871674" lon="104.624569"><ele>367.16</ele><time>2025-12-26T22:16:30.000Z</time></trkpt>
        <trkpt lat="28.6871649" lon="104.6244491"><ele>367.76</ele><time>2025-12-26T22:16:40.000Z</time></trkpt>
        <trkpt lat="28.6871882" lon="104.6243544"><ele>367.7</ele><time>2025-12-26T22:16:52.000Z</time></trkpt>
        <trkpt lat="28.6872166" lon="104.624247"><ele>367.92</ele><time>2025-12-26T22:18:04.000Z</time></trkpt>
        <trkpt lat="28.6873018" lon="104.6241995"><ele>369.68</ele><time>2025-12-26T22:18:16.000Z</time></trkpt>
        <trkpt lat="28.687393" lon="104.6242269"><ele>369.84</ele><time>2025-12-26T22:18:36.000Z</time></trkpt>
        <trkpt lat="28.6874848" lon="104.6242774"><ele>370.94</ele><time>2025-12-26T22:18:48.000Z</time></trkpt>
        <trkpt lat="28.6875694" lon="104.6243413"><ele>371.75</ele><time>2025-12-26T22:18:58.000Z</time></trkpt>
        <trkpt lat="28.6876388" lon="104.6244165"><ele>371.94</ele><time>2025-12-26T22:19:08.000Z</time></trkpt>
        <trkpt lat="28.6876837" lon="104.6245087"><ele>372.07</ele><time>2025-12-26T22:19:18.000Z</time></trkpt>
        <trkpt lat="28.6876963" lon="104.6246193"><ele>371.72</ele><time>2025-12-26T22:19:28.000Z</time></trkpt>
        <trkpt lat="28.6876933" lon="104.6247334"><ele>371.4</ele><time>2025-12-26T22:19:38.000Z</time></trkpt>
        <trkpt lat="28.6876827" lon="104.6248538"><ele>370.78</ele><time>2025-12-26T22:19:48.000Z</time></trkpt>
        <trkpt lat="28.6876667" lon="104.6249688"><ele>370.45</ele><time>2025-12-26T22:19:58.000Z</time></trkpt>
        <trkpt lat="28.6876398" lon="104.6250803"><ele>369.4</ele><time>2025-12-26T22:20:08.000Z</time></trkpt>
        <trkpt lat="28.6876022" lon="104.6251855"><ele>368.85</ele><time>2025-12-26T22:20:22.000Z</time></trkpt>
        <trkpt lat="28.6875711" lon="104.6252942"><ele>369.36</ele><time>2025-12-26T22:20:34.000Z</time></trkpt>
        <trkpt lat="28.6875498" lon="104.6253985"><ele>370.03</ele><time>2025-12-26T22:20:44.000Z</time></trkpt>
        <trkpt lat="28.6875221" lon="104.6255058"><ele>370.04</ele><time>2025-12-26T22:20:54.000Z</time></trkpt>
        <trkpt lat="28.6875477" lon="104.6256264"><ele>369.6</ele><time>2025-12-26T22:21:04.000Z</time></trkpt>
        <trkpt lat="28.6876392" lon="104.6256777"><ele>369.5</ele><time>2025-12-26T22:21:12.000Z</time></trkpt>
        <trkpt lat="28.6877553" lon="104.6256709"><ele>369.73</ele><time>2025-12-26T22:21:22.000Z</time></trkpt>
        <trkpt lat="28.687868" lon="104.6256486"><ele>369.15</ele><time>2025-12-26T22:21:32.000Z</time></trkpt>
        <trkpt lat="28.6879683" lon="104.6256533"><ele>368.33</ele><time>2025-12-26T22:21:40.000Z</time></trkpt>
        <trkpt lat="28.6880708" lon="104.6256908"><ele>367.99</ele><time>2025-12-26T22:21:50.000Z</time></trkpt>
        <trkpt lat="28.6881643" lon="104.6257175"><ele>368.62</ele><time>2025-12-26T22:21:58.000Z</time></trkpt>
        <trkpt lat="28.6882677" lon="104.6257261"><ele>369.26</ele><time>2025-12-26T22:22:08.000Z</time></trkpt>
        <trkpt lat="28.6883726" lon="104.6257185"><ele>368.56</ele><time>2025-12-26T22:22:18.000Z</time></trkpt>
        <trkpt lat="28.6884763" lon="104.6257181"><ele>368.55</ele><time>2025-12-26T22:22:28.000Z</time></trkpt>
        <trkpt lat="28.6885638" lon="104.6257617"><ele>369.48</ele><time>2025-12-26T22:22:40.000Z</time></trkpt>
        <trkpt lat="28.6886557" lon="104.6257953"><ele>372.23</ele><time>2025-12-26T22:22:58.000Z</time></trkpt>
        <trkpt lat="28.6887571" lon="104.625799"><ele>374.38</ele><time>2025-12-26T22:23:12.000Z</time></trkpt>
        <trkpt lat="28.68885" lon="104.6257754"><ele>375.58</ele><time>2025-12-26T22:23:34.000Z</time></trkpt>
        <trkpt lat="28.6889384" lon="104.6257319"><ele>373.7</ele><time>2025-12-26T22:23:44.000Z</time></trkpt>
        <trkpt lat="28.6890259" lon="104.6256701"><ele>372.91</ele><time>2025-12-26T22:23:54.000Z</time></trkpt>
        <trkpt lat="28.6890801" lon="104.6256197"><ele>372.02</ele><time>2025-12-26T22:24:02.000Z</time></trkpt>
        <trkpt lat="28.6890801" lon="104.6256197"><ele>372.02</ele><time>2025-12-26T22:24:45.000Z</time></trkpt>
        <trkpt lat="28.6890801" lon="104.6256197"><ele>372.02</ele><time>2025-12-26T22:24:51.000Z</time></trkpt>
        <trkpt lat="28.6890801" lon="104.6256197"><ele>372.02</ele><time>2025-12-26T22:25:05.000Z</time></trkpt>
        <trkpt lat="28.6891554" lon="104.6256758"><ele>371.69</ele><time>2025-12-26T22:25:07.000Z</time></trkpt>
        <trkpt lat="28.6891554" lon="104.6256758"><ele>371.69</ele><time>2025-12-26T22:25:16.000Z</time></trkpt>
        <trkpt lat="28.6892399" lon="104.6257111"><ele>371.23</ele><time>2025-12-26T22:25:34.000Z</time></trkpt>
        <trkpt lat="28.6892399" lon="104.6257111"><ele>371.23</ele><time>2025-12-26T22:25:39.000Z</time></trkpt>
        <trkpt lat="28.6893117" lon="104.6257721"><ele>370.52</ele><time>2025-12-26T22:25:53.000Z</time></trkpt>
        <trkpt lat="28.6893117" lon="104.6257721"><ele>370.52</ele><time>2025-12-26T22:26:20.000Z</time></trkpt>
        <trkpt lat="28.6893836" lon="104.6258464"><ele>370.11</ele><time>2025-12-26T22:26:50.000Z</time></trkpt>
        <trkpt lat="28.6894637" lon="104.6259041"><ele>370.27</ele><time>2025-12-26T22:27:02.000Z</time></trkpt>
        <trkpt lat="28.6895475" lon="104.6258669"><ele>370.79</ele><time>2025-12-26T22:27:14.000Z</time></trkpt>
        <trkpt lat="28.6896046" lon="104.6257723"><ele>370.63</ele><time>2025-12-26T22:27:24.000Z</time></trkpt>
        <trkpt lat="28.6896684" lon="104.625677"><ele>370.24</ele><time>2025-12-26T22:27:34.000Z</time></trkpt>
        <trkpt lat="28.6897213" lon="104.6255758"><ele>369.39</ele><time>2025-12-26T22:27:46.000Z</time></trkpt>
        <trkpt lat="28.6897726" lon="104.6254796"><ele>368.96</ele><time>2025-12-26T22:27:58.000Z</time></trkpt>
        <trkpt lat="28.6898496" lon="104.6254308"><ele>368.57</ele><time>2025-12-26T22:28:10.000Z</time></trkpt>
        <trkpt lat="28.6899401" lon="104.6254358"><ele>367.42</ele><time>2025-12-26T22:28:22.000Z</time></trkpt>
        <trkpt lat="28.6900282" lon="104.6254825"><ele>366.82</ele><time>2025-12-26T22:28:34.000Z</time></trkpt>
        <trkpt lat="28.6901216" lon="104.6255172"><ele>367.29</ele><time>2025-12-26T22:28:46.000Z</time></trkpt>
        <trkpt lat="28.6902183" lon="104.6255347"><ele>366.97</ele><time>2025-12-26T22:28:58.000Z</time></trkpt>
        <trkpt lat="28.6903105" lon="104.625492"><ele>366.54</ele><time>2025-12-26T22:29:10.000Z</time></trkpt>
        <trkpt lat="28.6903563" lon="104.6253927"><ele>366.44</ele><time>2025-12-26T22:29:20.000Z</time></trkpt>
        <trkpt lat="28.6903629" lon="104.6252701"><ele>367.14</ele><time>2025-12-26T22:29:32.000Z</time></trkpt>
        <trkpt lat="28.6904013" lon="104.6251543"><ele>368.56</ele><time>2025-12-26T22:29:44.000Z</time></trkpt>
        <trkpt lat="28.69048" lon="104.6251013"><ele>369.17</ele><time>2025-12-26T22:29:52.000Z</time></trkpt>
        <trkpt lat="28.6905718" lon="104.6250602"><ele>369.25</ele><time>2025-12-26T22:30:00.000Z</time></trkpt>
        <trkpt lat="28.6906503" lon="104.6249986"><ele>369.16</ele><time>2025-12-26T22:30:08.000Z</time></trkpt>
        <trkpt lat="28.6906642" lon="104.624899"><ele>369.07</ele><time>2025-12-26T22:30:16.000Z</time></trkpt>
        <trkpt lat="28.6906736" lon="104.6247782"><ele>371.57</ele><time>2025-12-26T22:30:26.000Z</time></trkpt>
        <trkpt lat="28.6906796" lon="104.6246634"><ele>372.64</ele><time>2025-12-26T22:30:36.000Z</time></trkpt>
        <trkpt lat="28.6906931" lon="104.6245442"><ele>373.01</ele><time>2025-12-26T22:30:46.000Z</time></trkpt>
        <trkpt lat="28.6907148" lon="104.6244273"><ele>373.92</ele><time>2025-12-26T22:30:56.000Z</time></trkpt>
        <trkpt lat="28.6907255" lon="104.6243106"><ele>374.17</ele><time>2025-12-26T22:31:06.000Z</time></trkpt>
        <trkpt lat="28.6907342" lon="104.6242039"><ele>373.78</ele><time>2025-12-26T22:31:16.000Z</time></trkpt>
        <trkpt lat="28.690737" lon="104.6240952"><ele>373.08</ele><time>2025-12-26T22:31:26.000Z</time></trkpt>
        <trkpt lat="28.6907469" lon="104.6239872"><ele>373.45</ele><time>2025-12-26T22:31:36.000Z</time></trkpt>
        <trkpt lat="28.6907925" lon="104.6238842"><ele>374.17</ele><time>2025-12-26T22:31:46.000Z</time></trkpt>
        <trkpt lat="28.6908716" lon="104.623817"><ele>374.9</ele><time>2025-12-26T22:31:56.000Z</time></trkpt>
        <trkpt lat="28.6909712" lon="104.6237845"><ele>375.46</ele><time>2025-12-26T22:32:06.000Z</time></trkpt>
        <trkpt lat="28.6910762" lon="104.6238114"><ele>375.62</ele><time>2025-12-26T22:32:16.000Z</time></trkpt>
        <trkpt lat="28.6911523" lon="104.623894"><ele>374.99</ele><time>2025-12-26T22:32:26.000Z</time></trkpt>
        <trkpt lat="28.6912032" lon="104.6239979"><ele>374.48</ele><time>2025-12-26T22:32:36.000Z</time></trkpt>
        <trkpt lat="28.6912394" lon="104.624111"><ele>374.28</ele><time>2025-12-26T22:32:46.000Z</time></trkpt>
        <trkpt lat="28.6912942" lon="104.6242168"><ele>374.62</ele><time>2025-12-26T22:32:56.000Z</time></trkpt>
        <trkpt lat="28.6913861" lon="104.6242301"><ele>374.62</ele><time>2025-12-26T22:33:08.000Z</time></trkpt>
        <trkpt lat="28.6914664" lon="104.6241663"><ele>373.81</ele><time>2025-12-26T22:33:20.000Z</time></trkpt>
        <trkpt lat="28.691535" lon="104.6240805"><ele>372.88</ele><time>2025-12-26T22:33:34.000Z</time></trkpt>
        <trkpt lat="28.6916289" lon="104.6240366"><ele>372.62</ele><time>2025-12-26T22:33:50.000Z</time></trkpt>
        <trkpt lat="28.6917187" lon="104.6240924"><ele>372.61</ele><time>2025-12-26T22:34:00.000Z</time></trkpt>
        <trkpt lat="28.6917873" lon="104.624175"><ele>372.7</ele><time>2025-12-26T22:34:08.000Z</time></trkpt>
        <trkpt lat="28.6917958" lon="104.6242832"><ele>372.1</ele><time>2025-12-26T22:34:18.000Z</time></trkpt>
        <trkpt lat="28.6917985" lon="104.6244013"><ele>372.06</ele><time>2025-12-26T22:34:28.000Z</time></trkpt>
        <trkpt lat="28.6918101" lon="104.6245261"><ele>372.43</ele><time>2025-12-26T22:34:40.000Z</time></trkpt>
        <trkpt lat="28.691806" lon="104.6246417"><ele>374.01</ele><time>2025-12-26T22:34:56.000Z</time></trkpt>
        <trkpt lat="28.6917866" lon="104.6247521"><ele>375.18</ele><time>2025-12-26T22:35:10.000Z</time></trkpt>
        <trkpt lat="28.6917262" lon="104.6248402"><ele>375.57</ele><time>2025-12-26T22:35:20.000Z</time></trkpt>
        <trkpt lat="28.6916909" lon="104.6249406"><ele>373.69</ele><time>2025-12-26T22:35:28.000Z</time></trkpt>
        <trkpt lat="28.6917173" lon="104.6250367"><ele>372.83</ele><time>2025-12-26T22:35:36.000Z</time></trkpt>
        <trkpt lat="28.6918061" lon="104.6250906"><ele>372.47</ele><time>2025-12-26T22:35:46.000Z</time></trkpt>
        <trkpt lat="28.691795" lon="104.6250675"><ele>371.97</ele><time>2025-12-26T22:35:56.000Z</time></trkpt>
        <trkpt lat="28.6918491" lon="104.6250815"><ele>370.93</ele><time>2025-12-26T22:36:16.000Z</time></trkpt>
        <trkpt lat="28.6919566" lon="104.6250845"><ele>370.5</ele><time>2025-12-26T22:36:28.000Z</time></trkpt>
        <trkpt lat="28.6920736" lon="104.6250529"><ele>369.88</ele><time>2025-12-26T22:36:36.000Z</time></trkpt>
        <trkpt lat="28.6921484" lon="104.6249626"><ele>370.83</ele><time>2025-12-26T22:36:44.000Z</time></trkpt>
        <trkpt lat="28.6921909" lon="104.6248541"><ele>372.02</ele><time>2025-12-26T22:36:52.000Z</time></trkpt>
        <trkpt lat="28.6922318" lon="104.6247483"><ele>373.03</ele><time>2025-12-26T22:37:00.000Z</time></trkpt>
        <trkpt lat="28.6922798" lon="104.624656"><ele>373.97</ele><time>2025-12-26T22:37:08.000Z</time></trkpt>
        <trkpt lat="28.6923208" lon="104.6245485"><ele>374.81</ele><time>2025-12-26T22:37:18.000Z</time></trkpt>
        <trkpt lat="28.6923745" lon="104.624457"><ele>374.27</ele><time>2025-12-26T22:37:28.000Z</time></trkpt>
        <trkpt lat="28.6923878" lon="104.6243544"><ele>373.2</ele><time>2025-12-26T22:37:36.000Z</time></trkpt>
        <trkpt lat="28.6923747" lon="104.6243052"><ele>372.28</ele><time>2025-12-26T22:37:42.000Z</time></trkpt>
        <trkpt lat="28.6923747" lon="104.6243052"><ele>372.28</ele><time>2025-12-26T22:37:55.000Z</time></trkpt>
        <trkpt lat="28.692375" lon="104.6242182"><ele>371.84</ele><time>2025-12-26T22:37:57.000Z</time></trkpt>
        <trkpt lat="28.692375" lon="104.6242182"><ele>371.84</ele><time>2025-12-26T22:38:04.000Z</time></trkpt>
        <trkpt lat="28.6923766" lon="104.6241044"><ele>371.62</ele><time>2025-12-26T22:38:12.000Z</time></trkpt>
        <trkpt lat="28.692357" lon="104.6239938"><ele>371.2</ele><time>2025-12-26T22:38:22.000Z</time></trkpt>
        <trkpt lat="28.6923582" lon="104.6238879"><ele>371.72</ele><time>2025-12-26T22:38:34.000Z</time></trkpt>
        <trkpt lat="28.6923878" lon="104.6237809"><ele>372.43</ele><time>2025-12-26T22:38:46.000Z</time></trkpt>
        <trkpt lat="28.6924666" lon="104.6237331"><ele>372.52</ele><time>2025-12-26T22:38:56.000Z</time></trkpt>
        <trkpt lat="28.692572" lon="104.6237228"><ele>372.39</ele><time>2025-12-26T22:39:06.000Z</time></trkpt>
        <trkpt lat="28.692688" lon="104.6237178"><ele>371.95</ele><time>2025-12-26T22:39:18.000Z</time></trkpt>
        <trkpt lat="28.6927955" lon="104.6236899"><ele>370.64</ele><time>2025-12-26T22:39:38.000Z</time></trkpt>
        <trkpt lat="28.6928936" lon="104.6236646"><ele>368.79</ele><time>2025-12-26T22:39:50.000Z</time></trkpt>
        <trkpt lat="28.6929935" lon="104.6236542"><ele>367.56</ele><time>2025-12-26T22:39:58.000Z</time></trkpt>
        <trkpt lat="28.6930853" lon="104.6236337"><ele>367.5</ele><time>2025-12-26T22:40:06.000Z</time></trkpt>
        <trkpt lat="28.6931791" lon="104.6236106"><ele>367.97</ele><time>2025-12-26T22:40:16.000Z</time></trkpt>
        <trkpt lat="28.6932217" lon="104.6235934"><ele>368.31</ele><time>2025-12-26T22:40:20.000Z</time></trkpt>
        <trkpt lat="28.6932952" lon="104.6235648"><ele>368.56</ele><time>2025-12-26T22:40:38.000Z</time></trkpt>
        <trkpt lat="28.6933921" lon="104.6235514"><ele>368.17</ele><time>2025-12-26T22:40:50.000Z</time></trkpt>
        <trkpt lat="28.6934864" lon="104.6235338"><ele>367.14</ele><time>2025-12-26T22:41:04.000Z</time></trkpt>
        <trkpt lat="28.6935852" lon="104.6235069"><ele>365.29</ele><time>2025-12-26T22:41:16.000Z</time></trkpt>
        <trkpt lat="28.6936913" lon="104.6234803"><ele>363.63</ele><time>2025-12-26T22:41:26.000Z</time></trkpt>
        <trkpt lat="28.6937999" lon="104.6234796"><ele>361.8</ele><time>2025-12-26T22:41:38.000Z</time></trkpt>
        <trkpt lat="28.6939016" lon="104.6234725"><ele>360.2</ele><time>2025-12-26T22:41:48.000Z</time></trkpt>
        <trkpt lat="28.6940072" lon="104.6234549"><ele>359.39</ele><time>2025-12-26T22:41:58.000Z</time></trkpt>
        <trkpt lat="28.694103" lon="104.6234493"><ele>357.58</ele><time>2025-12-26T22:42:06.000Z</time></trkpt>
        <trkpt lat="28.6941941" lon="104.6234605"><ele>356.12</ele><time>2025-12-26T22:42:16.000Z</time></trkpt>
        <trkpt lat="28.694322" lon="104.623495"><ele>356.36</ele><time>2025-12-26T22:42:28.000Z</time></trkpt>
        <trkpt lat="28.6944277" lon="104.6235338"><ele>357.55</ele><time>2025-12-26T22:42:38.000Z</time></trkpt>
        <trkpt lat="28.6945307" lon="104.623546"><ele>358.31</ele><time>2025-12-26T22:42:50.000Z</time></trkpt>
        <trkpt lat="28.6946287" lon="104.6235445"><ele>359.04</ele><time>2025-12-26T22:43:00.000Z</time></trkpt>
        <trkpt lat="28.6947103" lon="104.6234879"><ele>358.83</ele><time>2025-12-26T22:43:20.000Z</time></trkpt>
        <trkpt lat="28.6947716" lon="104.623394"><ele>357.66</ele><time>2025-12-26T22:43:32.000Z</time></trkpt>
        <trkpt lat="28.6948249" lon="104.6232944"><ele>356.56</ele><time>2025-12-26T22:43:42.000Z</time></trkpt>
        <trkpt lat="28.6948738" lon="104.62319"><ele>355.79</ele><time>2025-12-26T22:43:52.000Z</time></trkpt>
        <trkpt lat="28.69492" lon="104.6230881"><ele>355.73</ele><time>2025-12-26T22:44:02.000Z</time></trkpt>
        <trkpt lat="28.6949723" lon="104.6229955"><ele>355.58</ele><time>2025-12-26T22:44:12.000Z</time></trkpt>
        <trkpt lat="28.6950336" lon="104.6229017"><ele>355.5</ele><time>2025-12-26T22:44:22.000Z</time></trkpt>
        <trkpt lat="28.6950851" lon="104.6228106"><ele>355.83</ele><time>2025-12-26T22:44:32.000Z</time></trkpt>
        <trkpt lat="28.6951474" lon="104.6227236"><ele>357.1</ele><time>2025-12-26T22:44:42.000Z</time></trkpt>
        <trkpt lat="28.6952081" lon="104.6226326"><ele>357.93</ele><time>2025-12-26T22:44:52.000Z</time></trkpt>
        <trkpt lat="28.6952712" lon="104.6225407"><ele>358.37</ele><time>2025-12-26T22:45:02.000Z</time></trkpt>
        <trkpt lat="28.695288" lon="104.6224975"><ele>358.72</ele><time>2025-12-26T22:45:06.000Z</time></trkpt>
        <trkpt lat="28.6953436" lon="104.622448"><ele>359.03</ele><time>2025-12-26T22:45:24.000Z</time></trkpt>
        <trkpt lat="28.6954092" lon="104.6223689"><ele>357.5</ele><time>2025-12-26T22:45:34.000Z</time></trkpt>
        <trkpt lat="28.6954768" lon="104.6222796"><ele>356.57</ele><time>2025-12-26T22:45:44.000Z</time></trkpt>
        <trkpt lat="28.6955226" lon="104.6222226"><ele>356.25</ele><time>2025-12-26T22:45:54.000Z</time></trkpt>
        <trkpt lat="28.6955731" lon="104.6221406"><ele>356.27</ele><time>2025-12-26T22:46:14.000Z</time></trkpt>
        <trkpt lat="28.6956088" lon="104.6220322"><ele>356.43</ele><time>2025-12-26T22:46:30.000Z</time></trkpt>
        <trkpt lat="28.6956353" lon="104.6219217"><ele>356.58</ele><time>2025-12-26T22:46:42.000Z</time></trkpt>
        <trkpt lat="28.6956492" lon="104.62181"><ele>356.22</ele><time>2025-12-26T22:46:54.000Z</time></trkpt>
        <trkpt lat="28.6956743" lon="104.6216984"><ele>355.43</ele><time>2025-12-26T22:47:06.000Z</time></trkpt>
        <trkpt lat="28.6956982" lon="104.6215804"><ele>354.55</ele><time>2025-12-26T22:47:18.000Z</time></trkpt>
        <trkpt lat="28.6957229" lon="104.6214625"><ele>354.62</ele><time>2025-12-26T22:47:30.000Z</time></trkpt>
        <trkpt lat="28.695741" lon="104.6213561"><ele>354.68</ele><time>2025-12-26T22:47:40.000Z</time></trkpt>
        <trkpt lat="28.6957564" lon="104.6212471"><ele>355.31</ele><time>2025-12-26T22:47:50.000Z</time></trkpt>
        <trkpt lat="28.6957803" lon="104.6211319"><ele>356.12</ele><time>2025-12-26T22:48:02.000Z</time></trkpt>
        <trkpt lat="28.6957884" lon="104.6210197"><ele>356.7</ele><time>2025-12-26T22:48:16.000Z</time></trkpt>
        <trkpt lat="28.6958135" lon="104.6209102"><ele>358.5</ele><time>2025-12-26T22:48:26.000Z</time></trkpt>
        <trkpt lat="28.6958157" lon="104.6208"><ele>359.85</ele><time>2025-12-26T22:48:38.000Z</time></trkpt>
        <trkpt lat="28.6958077" lon="104.6207696"><ele>360.26</ele><time>2025-12-26T22:48:40.000Z</time></trkpt>
        <trkpt lat="28.6957949" lon="104.6206793"><ele>360.62</ele><time>2025-12-26T22:48:54.000Z</time></trkpt>
        <trkpt lat="28.6957926" lon="104.6205733"><ele>360.64</ele><time>2025-12-26T22:49:06.000Z</time></trkpt>
        <trkpt lat="28.6957993" lon="104.6204604"><ele>362.12</ele><time>2025-12-26T22:49:16.000Z</time></trkpt>
        <trkpt lat="28.6958219" lon="104.6203557"><ele>363.63</ele><time>2025-12-26T22:49:24.000Z</time></trkpt>
        <trkpt lat="28.6958487" lon="104.6202345"><ele>366.73</ele><time>2025-12-26T22:49:32.000Z</time></trkpt>
        <trkpt lat="28.6958698" lon="104.6201261"><ele>368.99</ele><time>2025-12-26T22:49:38.000Z</time></trkpt>
        <trkpt lat="28.6958121" lon="104.620034"><ele>371.66</ele><time>2025-12-26T22:49:46.000Z</time></trkpt>
        <trkpt lat="28.6957616" lon="104.6199367"><ele>375.93</ele><time>2025-12-26T22:50:06.000Z</time></trkpt>
        <trkpt lat="28.6957473" lon="104.619823"><ele>376.12</ele><time>2025-12-26T22:50:20.000Z</time></trkpt>
        <trkpt lat="28.6957473" lon="104.6197085"><ele>374.14</ele><time>2025-12-26T22:50:32.000Z</time></trkpt>
        <trkpt lat="28.6957238" lon="104.6196061"><ele>373.1</ele><time>2025-12-26T22:50:46.000Z</time></trkpt>
        <trkpt lat="28.6957263" lon="104.6195053"><ele>371.95</ele><time>2025-12-26T22:51:02.000Z</time></trkpt>
        <trkpt lat="28.6957464" lon="104.6193983"><ele>371.9</ele><time>2025-12-26T22:51:16.000Z</time></trkpt>
        <trkpt lat="28.6957586" lon="104.6192848"><ele>372.11</ele><time>2025-12-26T22:51:28.000Z</time></trkpt>
        <trkpt lat="28.6957778" lon="104.619174"><ele>371.97</ele><time>2025-12-26T22:51:38.000Z</time></trkpt>
        <trkpt lat="28.6958027" lon="104.6190605"><ele>371.95</ele><time>2025-12-26T22:51:48.000Z</time></trkpt>
        <trkpt lat="28.695832" lon="104.6189458"><ele>371.64</ele><time>2025-12-26T22:51:58.000Z</time></trkpt>
        <trkpt lat="28.6958539" lon="104.6188399"><ele>371.02</ele><time>2025-12-26T22:52:08.000Z</time></trkpt>
        <trkpt lat="28.6958602" lon="104.6187313"><ele>370.4</ele><time>2025-12-26T22:52:18.000Z</time></trkpt>
        <trkpt lat="28.6958387" lon="104.6186255"><ele>369.32</ele><time>2025-12-26T22:52:28.000Z</time></trkpt>
        <trkpt lat="28.6957816" lon="104.6185276"><ele>368.8</ele><time>2025-12-26T22:52:40.000Z</time></trkpt>
        <trkpt lat="28.6957091" lon="104.6184438"><ele>368.77</ele><time>2025-12-26T22:52:52.000Z</time></trkpt>
        <trkpt lat="28.6956231" lon="104.6183697"><ele>369.11</ele><time>2025-12-26T22:53:04.000Z</time></trkpt>
        <trkpt lat="28.6955352" lon="104.6183083"><ele>369.14</ele><time>2025-12-26T22:53:14.000Z</time></trkpt>
        <trkpt lat="28.6954466" lon="104.6182598"><ele>369</ele><time>2025-12-26T22:53:24.000Z</time></trkpt>
        <trkpt lat="28.6953651" lon="104.6182095"><ele>369.55</ele><time>2025-12-26T22:53:36.000Z</time></trkpt>
        <trkpt lat="28.6952824" lon="104.6181439"><ele>370.34</ele><time>2025-12-26T22:53:48.000Z</time></trkpt>
        <trkpt lat="28.6952288" lon="104.618056"><ele>369.34</ele><time>2025-12-26T22:53:58.000Z</time></trkpt>
        <trkpt lat="28.6952075" lon="104.6179536"><ele>369.17</ele><time>2025-12-26T22:54:08.000Z</time></trkpt>
        <trkpt lat="28.6952017" lon="104.6178448"><ele>367.66</ele><time>2025-12-26T22:54:18.000Z</time></trkpt>
        <trkpt lat="28.6952017" lon="104.6178448"><ele>367.66</ele><time>2025-12-26T22:54:29.000Z</time></trkpt>
      </trkseg>
  </trk>
</gpx>